M I D A S
Marine Information and Data Acquisition System
Tripno 451 of the Zeeleeuw from 2003-03-27 07:26:41 to 2003-03-27 16:33:47
Back to CruiseResearch ActivitiesStationsMapUnderway DataData graphs

EquipmentUnitsComment
TimeDGPSUTC
LatitudeDGPSDM.mWGS84
LongitudeDGPSDM.mWGS84
TemperatureSBE03/SBE38deg celciusITS90
ConductivitySBE21S/mITS90
SalinitySBE21 Practical Salinity Units
ChlorophylAChelsea fluorimeterg/lCalibrated in Aceton
Missing or incorrect values are displayed as -999
Sea surface data collected by the RV Zeeleeuw from 2003-03-27 07:26:41 to 2003-03-27 16:33:47
                                                                                    Next 1000 lines
Time Latitude Longitude Temperature Conductivity Salinity ChlorophylA
2003-03-27 07:26:49 51°13.601 2°56.105 15.42111 3.256471 21.941931 -0.882377
2003-03-27 07:26:54 51°13.601 2°56.105 15.421759 3.256576 21.942714 -0.882377
2003-03-27 07:26:58 51°13.6 2°56.105 15.421759 3.256576 21.942714 -0.882377
2003-03-27 07:27:04 51°13.599 2°56.104 15.421586 3.256471 21.941931 -0.848668
2003-03-27 07:27:09 51°13.599 2°56.104 15.421845 3.256471 21.941931 -0.848668
2003-03-27 07:27:14 51°13.6 2°56.104 15.422451 3.256471 21.942629 -0.882377
2003-03-27 07:27:18 51°13.6 2°56.105 15.422969 3.256471 21.94228 -0.848668
2003-03-27 07:27:24 51°13.601 2°56.105 15.423618 3.256366 21.942196 -0.848668
2003-03-27 07:27:29 51°13.601 2°56.105 15.423618 3.256366 21.942196 -0.848668
2003-03-27 07:27:34 51°13.6 2°56.104 15.424093 3.256366 21.942196 -0.848668
2003-03-27 07:27:38 51°13.599 2°56.104 15.42431 3.25626 21.941762 -0.848668
2003-03-27 07:27:44 51°13.599 2°56.104 15.427336 3.25626 21.941762 -0.848668
2003-03-27 07:27:49 51°13.599 2°56.105 15.425823 3.25626 21.941762 -0.848668
2003-03-27 07:27:54 51°13.599 2°56.105 15.42565 3.25626 21.941762 -0.848668
2003-03-27 07:27:59 51°13.599 2°56.104 15.42565 3.25626 21.941762 -0.848668
2003-03-27 07:28:04 51°13.6 2°56.104 15.426385 3.25626 21.941762 -0.848668
2003-03-27 07:28:09 51°13.6 2°56.105 15.426644 3.256155 21.941678 -0.814958
2003-03-27 07:28:14 51°13.6 2°56.105 15.427249 3.256155 21.942027 -0.848668
2003-03-27 07:28:18 51°13.6 2°56.105 15.427422 3.256155 21.942027 -0.848668
2003-03-27 07:28:24 51°13.6 2°56.105 15.428114 3.256155 21.942376 -0.848668
2003-03-27 07:28:29 51°13.6 2°56.104 15.428114 3.256155 21.942376 -0.848668
2003-03-27 07:28:34 51°13.6 2°56.104 15.428676 3.25605 21.941593 -0.882377
2003-03-27 07:28:38 51°13.599 2°56.103 15.429195 3.25605 21.941943 -0.848668
2003-03-27 07:28:44 51°13.598 2°56.103 15.429973 3.25605 21.941943 -0.848668
2003-03-27 07:28:49 51°13.598 2°56.103 15.430405 3.25605 21.941943 -0.848668
2003-03-27 07:28:54 51°13.598 2°56.102 15.431486 3.25605 21.942292 -0.814958
2003-03-27 07:28:58 51°13.598 2°56.102 15.431486 3.25605 21.942292 -0.814958
2003-03-27 07:29:04 51°13.598 2°56.101 15.435549 3.25605 21.942292 -0.848668
2003-03-27 07:29:09 51°13.599 2°56.1 15.436803 3.255944 21.941509 -0.848668
2003-03-27 07:29:14 51°13.599 2°56.097 15.448041 3.255944 21.941858 -0.848668
2003-03-27 07:29:18 51°13.6 2°56.096 15.443675 3.255944 21.941858 -0.882377
2003-03-27 07:29:24 51°13.6 2°56.092 15.445923 3.255839 21.941075 -0.848668
2003-03-27 07:29:30 51°13.601 2°56.088 15.445923 3.255839 21.941075 -0.848668
2003-03-27 07:29:34 51°13.602 2°56.084 15.452189 3.255839 21.941425 -0.882377
2003-03-27 07:29:40 51°13.604 2°56.079 15.44843 3.255839 21.941774 -0.814958
2003-03-27 07:29:45 51°13.605 2°56.073 15.451671 3.255839 21.942124 -0.848668
2003-03-27 07:29:50 51°13.607 2°56.068 15.453443 3.255839 21.942124 -0.848668
2003-03-27 07:29:54 51°13.608 2°56.064 15.455517 3.255734 21.94134 -0.848668
2003-03-27 07:30:00 51°13.61 2°56.056 15.460702 3.255734 21.94169 -0.848668
2003-03-27 07:30:05 51°13.611 2°56.049 15.460702 3.255734 21.94169 -0.848668
2003-03-27 07:30:10 51°13.614 2°56.042 15.452276 3.255734 21.94169 -0.848668
2003-03-27 07:30:14 51°13.615 2°56.036 15.463425 3.255734 21.942039 -0.848668
2003-03-27 07:30:20 51°13.617 2°56.026 15.450936 3.255629 21.941256 -0.848668
2003-03-27 07:30:25 51°13.618 2°56.017 15.451757 3.255629 21.941605 -0.882377
2003-03-27 07:30:30 51°13.619 2°56.007 15.448991 3.255629 21.941605 -0.882377
2003-03-27 07:30:34 51°13.62 2°56 15.448991 3.255629 21.941605 -0.882377
2003-03-27 07:30:40 51°13.623 2°55.989 15.441471 3.255629 21.941955 -0.848668
2003-03-27 07:30:45 51°13.625 2°55.98 15.444669 3.255523 21.941172 -0.848668
2003-03-27 07:30:50 51°13.628 2°55.97 15.445188 3.255629 21.942304 -0.882377
2003-03-27 07:30:54 51°13.629 2°55.962 15.445015 3.255523 21.941521 -0.848668
2003-03-27 07:31:00 51°13.632 2°55.952 15.444799 3.255418 21.940738 -0.848668
2003-03-27 07:31:05 51°13.635 2°55.942 15.444799 3.255418 21.940738 -0.848668
2003-03-27 07:31:09 51°13.637 2°55.935 15.446009 3.255523 21.941871 -0.882377
2003-03-27 07:31:14 51°13.641 2°55.927 15.445793 3.255418 21.941087 -0.848668
2003-03-27 07:31:18 51°13.643 2°55.921 15.445231 3.255418 21.941437 -0.848668
2003-03-27 07:31:24 51°13.646 2°55.91 15.449294 3.255418 21.941437 -0.848668
2003-03-27 07:31:30 51°13.651 2°55.899 15.449294 3.255418 21.941437 -0.848668
2003-03-27 07:31:34 51°13.654 2°55.891 15.448127 3.255418 21.941786 -0.848668
2003-03-27 07:31:40 51°13.659 2°55.88 15.444021 3.255418 21.941786 -0.882377
2003-03-27 07:31:45 51°13.662 2°55.87 15.437408 3.255313 21.941353 -0.848668
2003-03-27 07:31:50 51°13.666 2°55.862 15.439613 3.255313 21.941702 -0.848668
2003-03-27 07:31:54 51°13.669 2°55.857 15.438834 3.255207 21.940919 -0.882377
2003-03-27 07:31:59 51°13.672 2°55.851 15.438834 3.255207 21.940919 -0.882377
2003-03-27 07:32:04 51°13.675 2°55.846 15.441644 3.255313 21.941702 -0.814958
2003-03-27 07:32:09 51°13.677 2°55.842 15.446744 3.255313 21.941702 -0.848668
2003-03-27 07:32:14 51°13.679 2°55.839 15.438575 3.255207 21.940919 -0.882377
2003-03-27 07:32:18 51°13.679 2°55.836 15.442206 3.255207 21.941268 -0.848668
2003-03-27 07:32:24 51°13.68 2°55.834 15.447176 3.255207 21.940919 -0.814958
2003-03-27 07:32:29 51°13.68 2°55.833 15.447176 3.255207 21.940919 -0.814958
2003-03-27 07:32:34 51°13.68 2°55.831 15.445836 3.255102 21.940485 -0.848668
2003-03-27 07:32:39 51°13.68 2°55.83 15.45072 3.255207 21.941618 -0.882377
2003-03-27 07:32:44 51°13.68 2°55.83 15.457245 3.255102 21.941534 -0.848668
2003-03-27 07:32:49 51°13.681 2°55.83 15.499494 3.255102 21.941883 -0.882377
2003-03-27 07:32:54 51°13.681 2°55.829 15.471936 3.255102 21.941883 -0.848668
2003-03-27 07:33:00 51°13.681 2°55.827 15.471936 3.255102 21.941883 -0.848668
2003-03-27 07:33:04 51°13.681 2°55.825 15.470726 3.254997 21.941449 -0.848668
2003-03-27 07:33:09 51°13.682 2°55.822 15.469257 3.254997 21.941449 -0.848668
2003-03-27 07:33:14 51°13.682 2°55.818 15.464029 3.254997 21.941799 -0.848668
2003-03-27 07:33:20 51°13.683 2°55.812 15.461523 3.254997 21.941799 -0.882377
2003-03-27 07:33:24 51°13.684 2°55.809 15.461307 3.254997 21.941449 -0.848668
2003-03-27 07:33:30 51°13.684 2°55.802 15.458283 3.254892 21.941016 -0.814958
2003-03-27 07:33:34 51°13.685 2°55.798 15.458283 3.254892 21.941016 -0.814958
2003-03-27 07:33:40 51°13.686 2°55.791 15.458023 3.254997 21.941799 -0.848668
2003-03-27 07:33:45 51°13.687 2°55.785 15.458628 3.254892 21.941016 -0.848668
2003-03-27 07:33:50 51°13.686 2°55.78 15.458196 3.254892 21.941016 -0.848668
2003-03-27 07:33:54 51°13.686 2°55.775 15.458326 3.254892 21.941016 -0.848668
2003-03-27 07:33:59 51°13.686 2°55.77 15.458326 3.254892 21.941016 -0.848668
2003-03-27 07:34:04 51°13.686 2°55.764 15.458715 3.254786 21.940931 -0.848668
2003-03-27 07:34:10 51°13.686 2°55.758 15.458628 3.254892 21.941715 -0.848668
2003-03-27 07:34:14 51°13.686 2°55.754 15.458628 3.254892 21.942064 -0.848668
2003-03-27 07:34:20 51°13.687 2°55.749 15.457289 3.254786 21.941281 -0.848668
2003-03-27 07:34:24 51°13.688 2°55.746 15.454134 3.254786 21.940931 -0.848668
2003-03-27 07:34:28 51°13.688 2°55.743 15.454134 3.254786 21.940931 -0.848668
2003-03-27 07:34:34 51°13.687 2°55.741 15.453918 3.254681 21.940497 -0.848668
2003-03-27 07:34:39 51°13.687 2°55.74 15.45059 3.254681 21.940497 -0.848668
2003-03-27 07:34:44 51°13.687 2°55.74 15.454048 3.254681 21.940847 -0.848668
2003-03-27 07:34:48 51°13.687 2°55.74 15.457894 3.254681 21.941197 -0.882377
2003-03-27 07:34:54 51°13.686 2°55.74 15.458499 3.254681 21.941546 -0.848668
2003-03-27 07:34:58 51°13.686 2°55.74 15.45811 3.254681 21.941546 -0.848668
2003-03-27 07:35:04 51°13.687 2°55.74 15.45811 3.254681 21.941546 -0.848668
2003-03-27 07:35:09 51°13.688 2°55.74 15.45906 3.254681 21.941896 -0.848668
2003-03-27 07:35:14 51°13.689 2°55.741 15.458499 3.254576 21.941112 -0.848668
2003-03-27 07:35:18 51°13.69 2°55.742 15.458844 3.254576 21.941462 -0.848668
2003-03-27 07:35:24 51°13.692 2°55.743 15.458758 3.25447 21.940329 -0.848668
2003-03-27 07:35:29 51°13.693 2°55.743 15.458542 3.254576 21.941462 -0.848668
2003-03-27 07:35:34 51°13.695 2°55.744 15.458542 3.254576 21.941462 -0.848668
2003-03-27 07:35:38 51°13.696 2°55.745 15.458283 3.25447 21.941028 -0.882377
2003-03-27 07:35:44 51°13.698 2°55.746 15.458715 3.25447 21.941028 -0.848668
2003-03-27 07:35:49 51°13.7 2°55.747 15.459147 3.25447 21.941378 -0.882377
2003-03-27 07:35:54 51°13.702 2°55.748 15.458499 3.25447 21.941378 -0.882377
2003-03-27 07:35:58 51°13.703 2°55.748 15.456252 3.254365 21.940944 -0.882377
2003-03-27 07:36:04 51°13.706 2°55.748 15.456252 3.254365 21.940944 -0.882377
2003-03-27 07:36:09 51°13.709 2°55.748 15.45435 3.25447 21.942077 -0.848668
2003-03-27 07:36:14 51°13.711 2°55.747 15.453443 3.254365 21.941293 -0.848668
2003-03-27 07:36:18 51°13.713 2°55.746 15.449035 3.25426 21.94086 -0.848668
2003-03-27 07:36:24 51°13.717 2°55.744 15.449769 3.25426 21.94086 -0.882377
2003-03-27 07:36:28 51°13.72 2°55.743 15.449769 3.25426 21.94086 -0.882377
2003-03-27 07:36:34 51°13.725 2°55.74 15.448905 3.254365 21.941993 -0.814958
2003-03-27 07:36:39 51°13.728 2°55.738 15.453011 3.25426 21.941209 -0.848668
2003-03-27 07:36:44 51°13.732 2°55.735 15.455431 3.25426 21.941209 -0.848668
2003-03-27 07:36:48 51°13.735 2°55.732 15.456943 3.25426 21.941209 -0.848668
2003-03-27 07:36:54 51°13.74 2°55.727 15.45677 3.25426 21.941209 -0.848668
2003-03-27 07:36:58 51°13.743 2°55.724 15.45677 3.25426 21.941209 -0.848668
2003-03-27 07:37:04 51°13.748 2°55.719 15.460227 3.25426 21.941209 -0.814958
2003-03-27 07:37:09 51°13.752 2°55.714 15.473103 3.254155 21.940775 -0.848668
2003-03-27 07:37:14 51°13.757 2°55.709 15.472282 3.254155 21.940775 -0.848668
2003-03-27 07:37:19 51°13.762 2°55.703 15.482261 3.254155 21.940426 -0.848668
2003-03-27 07:37:24 51°13.767 2°55.698 15.479021 3.254049 21.939992 -0.848668
2003-03-27 07:37:29 51°13.772 2°55.692 15.479021 3.254049 21.939992 -0.848668
2003-03-27 07:37:34 51°13.778 2°55.686 15.481915 3.253944 21.939208 -0.882377
2003-03-27 07:37:38 51°13.783 2°55.681 15.488395 3.254049 21.940341 -0.848668
2003-03-27 07:37:44 51°13.79 2°55.674 15.488308 3.254049 21.940691 -0.882377
2003-03-27 07:37:48 51°13.795 2°55.669 15.489129 3.253944 21.939908 -0.848668
2003-03-27 07:37:54 51°13.802 2°55.661 15.491202 3.254049 21.94139 -0.848668
2003-03-27 07:37:58 51°13.807 2°55.656 15.4909 3.253944 21.940607 -0.848668
2003-03-27 07:38:04 51°13.815 2°55.648 15.4909 3.253944 21.940607 -0.848668
2003-03-27 07:38:09 51°13.821 2°55.642 15.489431 3.253839 21.940523 -0.848668
2003-03-27 07:38:14 51°13.828 2°55.636 15.490079 3.254049 21.94209 -0.848668
2003-03-27 07:38:18 51°13.834 2°55.632 15.488697 3.253944 21.941656 -0.882377
2003-03-27 07:38:24 51°13.843 2°55.626 15.481959 3.253839 21.941222 -0.882377
2003-03-27 07:38:30 51°13.852 2°55.62 15.484421 3.253839 21.940872 -0.848668
2003-03-27 07:38:34 51°13.858 2°55.616 15.484421 3.253839 21.940872 -0.848668
2003-03-27 07:38:38 51°13.864 2°55.611 15.481829 3.253839 21.941572 -0.882377
2003-03-27 07:38:44 51°13.873 2°55.606 15.484853 3.253839 21.941572 -0.848668
2003-03-27 07:38:49 51°13.881 2°55.601 -999 3.253733 21.940788 -0.848668
2003-03-27 07:38:54 51°13.889 2°55.596 -999 3.253733 21.941138 -0.882377
2003-03-27 07:38:58 51°13.896 2°55.592 -999 3.253733 21.941138 -0.882377
2003-03-27 07:39:04 51°13.905 2°55.586 -999 3.253733 21.941138 -0.848668
2003-03-27 07:39:09 51°13.912 2°55.581 -999 3.253733 21.941138 -0.848668
2003-03-27 07:39:14 51°13.92 2°55.575 -999 3.253733 21.941488 -0.848668
2003-03-27 07:39:18 51°13.927 2°55.571 -999 3.253628 21.941403 -0.848668
2003-03-27 07:39:24 51°13.936 2°55.565 -999 3.253628 21.940704 -0.882377
2003-03-27 07:39:29 51°13.944 2°55.56 -999 3.253628 21.941054 -0.882377
2003-03-27 07:39:34 51°13.952 2°55.554 -999 3.253628 21.941054 -0.882377
2003-03-27 07:39:38 51°13.959 2°55.55 -999 3.253523 21.94062 -0.848668
2003-03-27 07:39:44 51°13.968 2°55.544 -999 3.253628 21.941054 -0.882377
2003-03-27 07:39:49 51°13.976 2°55.539 -999 3.253628 21.941054 -0.882377
2003-03-27 07:39:54 51°13.984 2°55.534 -999 3.253523 21.94062 -0.848668
2003-03-27 07:39:59 51°13.992 2°55.529 -999 3.253523 21.940969 -0.848668
2003-03-27 07:40:04 51°14.001 2°55.524 -999 3.253523 21.940969 -0.848668
2003-03-27 07:40:08 51°14.007 2°55.521 -999 3.253418 21.940536 -0.848668
2003-03-27 07:40:14 51°14.016 2°55.514 -999 3.253418 21.940536 -0.882377
2003-03-27 07:40:18 51°14.022 2°55.51 -999 3.253312 21.940102 -0.848668
2003-03-27 07:40:24 51°14.032 2°55.503 -999 3.253312 21.940102 -0.882377
2003-03-27 07:40:29 51°14.04 2°55.497 -999 3.253418 21.940885 -0.848668
2003-03-27 07:40:34 51°14.048 2°55.491 -999 3.253418 21.940885 -0.848668
2003-03-27 07:40:38 51°14.054 2°55.486 -999 3.253312 21.940451 -0.882377
2003-03-27 07:40:44 51°14.064 2°55.479 -999 3.253312 21.940801 -0.814958
2003-03-27 07:40:49 51°14.071 2°55.472 -999 3.253312 21.940801 -0.848668
2003-03-27 07:40:54 51°14.079 2°55.466 -999 3.253312 21.940801 -0.848668
2003-03-27 07:40:58 51°14.085 2°55.46 -999 3.253312 21.940801 -0.814958
2003-03-27 07:41:04 51°14.094 2°55.452 -999 3.253312 21.940801 -0.814958
2003-03-27 07:41:09 51°14.102 2°55.445 -999 3.253207 21.940367 -0.882377
2003-03-27 07:41:14 51°14.109 2°55.439 15.536537 3.267318 22.066882 -0.646411
2003-03-27 07:41:18 51°14.115 2°55.434 12.661206 3.226991 21.901871 -0.612702
2003-03-27 07:41:24 51°14.124 2°55.425 11.752245 3.171711 21.423311 4.174033
2003-03-27 07:41:29 51°14.132 2°55.419 11.752245 3.171711 21.423311 4.174033
2003-03-27 07:41:34 51°14.139 2°55.412 11.004327 3.052562 21.668046 3.129042
2003-03-27 07:41:38 51°14.145 2°55.407 10.678073 3.087316 22.802405 8.320289
2003-03-27 07:41:44 51°14.154 2°55.399 10.566016 3.173985 24.877776 30.871879
2003-03-27 07:41:49 51°14.162 2°55.392 10.636376 3.249713 26.77354 35.692324
2003-03-27 07:41:54 51°14.169 2°55.386 10.975776 3.205288 27.218326 33.905725
2003-03-27 07:41:58 51°14.176 2°55.38 10.975776 3.205288 27.218326 33.905725
2003-03-27 07:42:04 51°14.185 2°55.371 9.687371 3.169078 27.592478 30.770751
2003-03-27 07:42:09 51°14.193 2°55.363 10.434993 3.062016 27.090399 28.107708
2003-03-27 07:42:14 51°14.2 2°55.356 10.137111 2.68341 23.78763 26.523366
2003-03-27 07:42:18 51°14.205 2°55.349 9.906194 2.625038 23.399247 25.478375
2003-03-27 07:42:24 51°14.213 2°55.339 10.489994 3.215847 29.463409 24.770477
2003-03-27 07:42:29 51°14.22 2°55.329 10.489994 3.215847 29.463409 24.770477
2003-03-27 07:42:34 51°14.226 2°55.32 10.511497 2.994555 27.346375 24.096289
2003-03-27 07:42:38 51°14.231 2°55.312 10.168556 2.960876 27.128953 23.691777
2003-03-27 07:42:44 51°14.238 2°55.3 10.433316 2.944564 27.035403 23.051298
2003-03-27 07:42:49 51°14.244 2°55.29 10.012822 2.930777 26.934556 22.91646
2003-03-27 07:42:54 51°14.25 2°55.279 10.161819 2.914781 26.807358 22.646785
2003-03-27 07:42:58 51°14.254 2°55.27 10.161819 2.914781 26.807358 22.646785
2003-03-27 07:43:04 51°14.261 2°55.255 10.670321 2.903206 26.715476 21.905178
2003-03-27 07:43:09 51°14.267 2°55.244 10.295444 2.897944 26.690071 22.006306
2003-03-27 07:43:14 51°14.273 2°55.233 9.784052 2.889421 26.640188 21.702922
2003-03-27 07:43:19 51°14.279 2°55.221 10.490692 2.868691 26.451212 21.702922
2003-03-27 07:43:24 51°14.284 2°55.21 10.551181 2.8568 26.353819 21.500665
2003-03-27 07:43:29 51°14.29 2°55.199 10.187406 2.84954 26.30033 21.2647
2003-03-27 07:43:34 51°14.296 2°55.188 10.187406 2.84954 26.30033 21.2647
2003-03-27 07:43:38 51°14.3 2°55.18 9.720681 2.845331 26.263064 21.163571
2003-03-27 07:43:44 51°14.307 2°55.167 9.960891 2.845016 26.274622 21.028734
2003-03-27 07:43:49 51°14.313 2°55.156 9.653618 2.846173 26.303043 20.961315
2003-03-27 07:43:54 51°14.318 2°55.145 10.001285 2.847752 26.332701 20.826477
2003-03-27 07:43:58 51°14.322 2°55.136 9.8199 2.850172 26.377786 20.792768
2003-03-27 07:44:04 51°14.328 2°55.123 9.8199 2.850172 26.377786 20.792768
2003-03-27 07:44:09 51°14.333 2°55.113 9.451493 2.857012 26.463706 20.860187
2003-03-27 07:44:14 51°14.337 2°55.103 9.61381 2.869639 26.605766 20.826477
2003-03-27 07:44:18 51°14.341 2°55.094 9.743334 2.876269 26.687954 20.759059
2003-03-27 07:44:24 51°14.347 2°55.08 10.21906 2.885214 26.808472 20.65793
2003-03-27 07:44:28 51°14.35 2°55.071 10.21906 2.885214 26.808472 20.65793
2003-03-27 07:44:34 51°14.357 2°55.058 9.799438 2.900263 26.977284 20.927606
2003-03-27 07:44:38 51°14.361 2°55.049 9.686805 2.912576 27.128541 21.096153
2003-03-27 07:44:44 51°14.367 2°55.035 10.155409 2.923837 27.261604 20.792768
2003-03-27 07:44:49 51°14.373 2°55.025 9.69001 2.931519 27.361946 20.826477
2003-03-27 07:44:54 51°14.379 2°55.014 9.610224 2.937097 27.425213 20.826477
2003-03-27 07:44:59 51°14.385 2°55.004 9.487903 2.942465 27.490255 20.927606
2003-03-27 07:45:04 51°14.392 2°54.994 9.487903 2.942465 27.490255 20.927606
2003-03-27 07:45:09 51°14.398 2°54.985 9.580114 2.947832 27.553403 21.837759
2003-03-27 07:45:14 51°14.405 2°54.976 9.398355 2.954358 27.627893 21.80405
2003-03-27 07:45:18 51°14.411 2°54.968 9.92512 2.960989 27.708778 22.040016
2003-03-27 07:45:24 51°14.419 2°54.953 9.401195 2.973092 27.846324 22.444529
2003-03-27 07:45:29 51°14.427 2°54.94 9.561748 2.976461 27.891052 22.3434
2003-03-27 07:45:34 51°14.434 2°54.926 9.561748 2.976461 27.891052 22.3434
2003-03-27 07:45:38 51°14.439 2°54.914 10.007288 2.960884 27.728703 22.3434
2003-03-27 07:45:44 51°14.447 2°54.895 9.714605 2.979513 27.926592 22.781623
2003-03-27 07:45:49 51°14.454 2°54.879 9.409478 2.977618 27.906333 23.152426
2003-03-27 07:45:54 51°14.46 2°54.861 9.360047 2.98025 27.943488 22.983879
2003-03-27 07:45:58 51°14.466 2°54.847 9.109331 2.981723 27.959401 23.48952
2003-03-27 07:46:04 51°14.474 2°54.825 9.109331 2.981723 27.959401 23.48952
2003-03-27 07:46:09 51°14.481 2°54.807 9.711825 2.995722 28.118334 23.826614
2003-03-27 07:46:14 51°14.487 2°54.788 9.393337 3.009301 28.269804 23.590648
2003-03-27 07:46:18 51°14.492 2°54.773 9.576384 3.025827 28.454791 23.52323
2003-03-27 07:46:24 51°14.5 2°54.75 9.64928 3.043617 28.659361 23.219845
2003-03-27 07:46:29 51°14.507 2°54.73 9.64928 3.043617 28.659361 23.219845
2003-03-27 07:46:34 51°14.514 2°54.711 9.438674 3.059512 28.843954 22.91646
2003-03-27 07:46:39 51°14.52 2°54.692 9.185554 3.078988 29.071107 22.545657
2003-03-27 07:46:44 51°14.527 2°54.672 9.595359 3.0932 29.237551 21.938888
2003-03-27 07:46:49 51°14.534 2°54.652 8.86418 3.101727 29.33435 22.040016
2003-03-27 07:46:54 51°14.541 2°54.632 9.105717 3.11573 29.492033 21.399537
2003-03-27 07:46:58 51°14.546 2°54.616 9.064905 3.123731 29.58496 21.028734
2003-03-27 07:47:04 51°14.554 2°54.589 9.064905 3.123731 29.58496 21.028734
2003-03-27 07:47:09 51°14.56 2°54.567 9.057148 3.129943 29.66347 20.556802
2003-03-27 07:47:14 51°14.566 2°54.547 8.900015 3.139313 29.778047 20.152289
2003-03-27 07:47:19 51°14.574 2°54.528 8.822546 3.145525 29.856775 19.916324
2003-03-27 07:47:24 51°14.581 2°54.51 9.006543 3.150369 29.915493 19.57923
2003-03-27 07:47:29 51°14.588 2°54.491 9.232271 3.15258 29.949459 19.00617
2003-03-27 07:47:34 51°14.595 2°54.471 9.232271 3.15258 29.949459 19.00617
2003-03-27 07:47:38 51°14.6 2°54.456 8.845897 3.155423 29.986507 18.702785
2003-03-27 07:47:44 51°14.608 2°54.433 9.347826 3.155212 29.990751 18.365691
2003-03-27 07:47:48 51°14.613 2°54.418 8.915278 3.154475 29.990896 18.197144
2003-03-27 07:47:54 51°14.621 2°54.395 9.881624 3.153528 29.990263 17.792631
2003-03-27 07:47:58 51°14.627 2°54.379 9.367199 3.156897 30.030024 17.792631
2003-03-27 07:48:04 51°14.635 2°54.356 9.367199 3.156897 30.030024 17.792631
2003-03-27 07:48:08 51°14.64 2°54.34 9.283696 3.153739 30.009006 17.624084
2003-03-27 07:48:14 51°14.649 2°54.316 9.200893 3.15795 30.056221 17.051024
2003-03-27 07:48:18 51°14.654 2°54.3 8.768794 3.153528 30.011104 17.017315
2003-03-27 07:48:24 51°14.662 2°54.276 9.470032 3.157424 30.05572 16.680221
2003-03-27 07:48:28 51°14.668 2°54.26 9.19358 3.158582 30.073683 16.579093
2003-03-27 07:48:34 51°14.677 2°54.236 9.19358 3.158582 30.073683 16.579093
2003-03-27 07:48:38 51°14.682 2°54.219 9.229139 3.159424 30.087604 16.410546
2003-03-27 07:48:44 51°14.691 2°54.192 9.31219 3.157003 30.068581 16.140871
2003-03-27 07:48:49 51°14.698 2°54.17 8.830665 3.160477 30.108082 16.006033
2003-03-27 07:48:54 51°14.706 2°54.148 9.380458 3.159319 30.10093 15.567811
2003-03-27 07:48:58 51°14.712 2°54.13 9.380458 3.159319 30.10093 15.567811
2003-03-27 07:49:04 51°14.72 2°54.103 9.486485 3.159635 30.107148 15.567811
2003-03-27 07:49:09 51°14.728 2°54.08 8.860743 3.157213 30.084509 15.567811
2003-03-27 07:49:14 51°14.736 2°54.057 9.26648 3.156476 30.078183 15.399264
2003-03-27 07:49:18 51°14.742 2°54.039 8.952371 3.159951 30.117704 15.500392
2003-03-27 07:49:24 51°14.752 2°54.011 9.441607 3.158372 30.103219 15.500392
2003-03-27 07:49:29 51°14.76 2°53.987 9.091212 3.149317 30.014966 15.365554
2003-03-27 07:49:34 51°14.767 2°53.964 9.091212 3.149317 30.014966 15.365554
2003-03-27 07:49:38 51°14.773 2°53.946 8.989587 3.152792 30.053763 15.163298
2003-03-27 07:49:44 51°14.783 2°53.918 9.439951 3.15574 30.088464 14.859913
2003-03-27 07:49:49 51°14.79 2°53.894 9.160046 3.154792 30.076303 14.961042
2003-03-27 07:49:54 51°14.797 2°53.871 9.463932 3.15037 30.033276 14.725076
2003-03-27 07:49:58 51°14.803 2°53.853 9.463932 3.15037 30.033276 14.725076
2003-03-27 07:50:04 51°14.811 2°53.825 9.311716 3.152371 30.06087 14.826204
2003-03-27 07:50:09 51°14.819 2°53.802 9.0084 3.147317 30.009007 14.792494
2003-03-27 07:50:14 51°14.826 2°53.779 9.112088 3.153318 30.072311 14.792494
2003-03-27 07:50:18 51°14.832 2°53.76 7.969282 3.150897 30.051096 14.691366
2003-03-27 07:50:24 51°14.841 2°53.732 7.850407 3.152897 30.073647 14.792494
2003-03-27 07:50:29 51°14.849 2°53.708 7.995653 3.147422 30.020212 14.657657
2003-03-27 07:50:34 51°14.857 2°53.685 7.995653 3.147422 30.020212 14.657657
2003-03-27 07:50:38 51°14.863 2°53.666 8.161082 3.151844 30.066149 14.657657
2003-03-27 07:50:44 51°14.872 2°53.637 7.954616 3.155319 30.104263 14.994751
2003-03-27 07:50:49 51°14.879 2°53.614 8.022255 3.149739 30.049706 15.500392
2003-03-27 07:50:54 51°14.887 2°53.59 7.950308 3.152371 30.079655 15.399264
2003-03-27 07:50:58 51°14.893 2°53.571 7.895532 3.155319 30.115118 15.63523
2003-03-27 07:51:04 51°14.902 2°53.543 7.895532 3.155319 30.115118 15.63523
2003-03-27 07:51:09 51°14.909 2°53.52 7.890202 3.152266 30.086498 15.60152
2003-03-27 07:51:14 51°14.917 2°53.496 7.879735 3.138473 29.946681 15.736358
2003-03-27 07:51:18 51°14.923 2°53.478 7.84648 3.155951 30.137002 15.938614
2003-03-27 07:51:24 51°14.932 2°53.45 7.918058 3.153424 30.117553 15.534101
2003-03-27 07:51:29 51°14.94 2°53.426 7.950211 3.158267 30.170908 15.163298
2003-03-27 07:51:34 51°14.947 2°53.403 7.950211 3.158267 30.170908 15.163298
2003-03-27 07:51:39 51°14.955 2°53.38 7.703131 3.146265 30.047706 14.961042
2003-03-27 07:51:44 51°14.962 2°53.356 7.860879 3.155635 30.155426 14.826204
2003-03-27 07:51:49 51°14.97 2°53.333 7.939027 3.153003 30.132678 14.286853
2003-03-27 07:51:54 51°14.977 2°53.31 7.697688 3.163006 30.242091 14.253144
2003-03-27 07:51:58 51°14.983 2°53.291 7.929004 3.150371 30.112102 13.91605
2003-03-27 07:52:04 51°14.992 2°53.262 7.929004 3.150371 30.112102 13.91605
2003-03-27 07:52:08 51°14.998 2°53.244 7.902654 3.151213 30.126087 13.545247
2003-03-27 07:52:14 51°15.007 2°53.216 8.015049 3.154583 30.167534 13.34299
2003-03-27 07:52:18 51°15.013 2°53.197 7.811849 3.161637 30.245821 13.174443
2003-03-27 07:52:24 51°15.022 2°53.169 7.806949 3.158584 30.217146 13.3767
2003-03-27 07:52:29 51°15.03 2°53.145 7.700215 3.162164 30.257955 13.107024
2003-03-27 07:52:34 51°15.037 2°53.122 7.700215 3.162164 30.257955 13.107024
2003-03-27 07:52:38 51°15.043 2°53.103 7.982784 3.161005 30.246423 13.073315
2003-03-27 07:52:44 51°15.052 2°53.075 7.675911 3.161953 30.254996 12.80364
2003-03-27 07:52:49 51°15.059 2°53.051 7.80821 3.165849 30.299162 12.668802
2003-03-27 07:52:54 51°15.067 2°53.028 7.951615 3.159005 30.231075 12.331708
2003-03-27 07:52:58 51°15.073 2°53.009 7.798554 3.167744 30.32508 12.062033
2003-03-27 07:53:04 51°15.082 2°52.981 7.798554 3.167744 30.32508 12.062033
2003-03-27 07:53:08 51°15.088 2°52.962 7.93772 3.165112 30.295739 11.826067
2003-03-27 07:53:14 51°15.097 2°52.934 7.828633 3.161321 30.25633 11.65752
2003-03-27 07:53:18 51°15.103 2°52.915 7.636469 3.163848 30.289661 11.253007
2003-03-27 07:53:24 51°15.112 2°52.887 7.904447 3.163533 30.291429 11.151879
2003-03-27 07:53:29 51°15.119 2°52.865 7.787101 3.164901 30.30593 11.151879
2003-03-27 07:53:34 51°15.127 2°52.843 7.787101 3.164901 30.30593 11.151879
2003-03-27 07:53:38 51°15.133 2°52.825 7.781665 3.160058 30.257541 11.08446
2003-03-27 07:53:44 51°15.142 2°52.797 8.020224 3.161953 30.281271 10.882204
2003-03-27 07:53:48 51°15.148 2°52.776 7.73442 3.160585 30.269689 10.781076
2003-03-27 07:53:54 51°15.157 2°52.745 7.930021 3.161532 30.281191 10.983332
2003-03-27 07:53:58 51°15.162 2°52.724 8.066872 3.166902 30.340298 10.814785
2003-03-27 07:54:04 51°15.171 2°52.695 8.066872 3.166902 30.340298 10.814785
2003-03-27 07:54:09 51°15.178 2°52.671 7.973589 3.169218 30.367052 10.814785
2003-03-27 07:54:14 51°15.185 2°52.647 7.690349 3.168903 30.367368 10.814785
2003-03-27 07:54:18 51°15.191 2°52.629 7.69098 3.163217 30.307088 10.5114
2003-03-27 07:54:24 51°15.2 2°52.601 8.048749 3.170587 30.390366 10.342853
2003-03-27 07:54:28 51°15.206 2°52.582 8.048749 3.170587 30.390366 10.342853
2003-03-27 07:54:34 51°15.215 2°52.554 8.011132 3.163743 30.317059 10.309144
2003-03-27 07:54:39 51°15.223 2°52.531 7.941593 3.16806 30.361368 10.443982
2003-03-27 07:54:44 51°15.231 2°52.507 7.852734 3.164796 30.330419 10.376563
2003-03-27 07:54:49 51°15.238 2°52.484 7.736363 3.16806 30.367232 10.477691
2003-03-27 07:54:54 51°15.246 2°52.461 8.063683 3.161532 30.299469 10.578819
2003-03-27 07:54:58 51°15.252 2°52.442 8.063683 3.161532 30.299469 10.578819
2003-03-27 07:55:04 51°15.261 2°52.415 8.253901 3.167534 30.365314 10.376563
2003-03-27 07:55:09 51°15.268 2°52.393 7.851425 3.165428 30.340048 10.342853
2003-03-27 07:55:14 51°15.275 2°52.37 7.657433 3.165955 30.344898 10.342853
2003-03-27 07:55:18 51°15.281 2°52.352 7.695209 3.16606 30.346015 10.443982
2003-03-27 07:55:24 51°15.29 2°52.323 7.896937 3.171008 30.397035 10.208016
2003-03-27 07:55:29 51°15.297 2°52.3 7.810442 3.163954 30.32222 10.342853
2003-03-27 07:55:34 51°15.304 2°52.276 7.810442 3.163954 30.32222 10.342853
2003-03-27 07:55:38 51°15.31 2°52.257 7.892916 3.161638 30.298391 10.578819
2003-03-27 07:55:44 51°15.319 2°52.229 7.770695 3.165428 30.341513 10.612529
2003-03-27 07:55:49 51°15.326 2°52.205 7.650673 3.162164 30.306167 10.410272
2003-03-27 07:55:54 51°15.334 2°52.182 7.801369 3.164059 30.326265 10.713657
2003-03-27 07:55:59 51°15.341 2°52.158 7.85894 3.166481 30.351214 10.342853
2003-03-27 07:56:04 51°15.35 2°52.136 7.85894 3.166481 30.351214 10.342853
2003-03-27 07:56:09 51°15.358 2°52.113 7.804135 3.161532 30.301664 10.578819
2003-03-27 07:56:14 51°15.366 2°52.091 8.163446 3.168692 30.378333 10.54511
2003-03-27 07:56:18 51°15.373 2°52.074 7.889184 3.162375 30.314256 10.376563
2003-03-27 07:56:24 51°15.384 2°52.047 7.761325 3.163428 30.326888 10.174306
2003-03-27 07:56:28 51°15.391 2°52.029 7.761325 3.163428 30.326888 10.174306
2003-03-27 07:56:34 51°15.403 2°52.002 7.872998 3.169008 30.38682 10.477691
2003-03-27 07:56:38 51°15.41 2°51.984 7.869314 3.161427 30.306401 10.376563
2003-03-27 07:56:44 51°15.421 2°51.956 7.860734 3.162585 30.319418 10.140597
2003-03-27 07:56:49 51°15.431 2°51.933 7.779481 3.170272 30.400226 10.376563
2003-03-27 07:56:54 51°15.441 2°51.909 7.943966 3.165112 30.344757 10.241725
2003-03-27 07:56:59 51°15.45 2°51.886 7.943966 3.165112 30.344757 10.241725
2003-03-27 07:57:04 51°15.46 2°51.862 7.855401 3.165428 30.353239 10.140597
2003-03-27 07:57:09 51°15.469 2°51.839 7.498841 3.169535 30.399748 10.208016
2003-03-27 07:57:14 51°15.479 2°51.815 7.698368 3.170903 30.420155 9.837212
2003-03-27 07:57:18 51°15.487 2°51.795 7.851813 3.170482 30.4223 9.769794
2003-03-27 07:57:24 51°15.499 2°51.767 7.551522 3.169008 30.408119 10.039469
2003-03-27 07:57:29 51°15.508 2°51.743 7.909678 3.16964 30.417032 10.073178
2003-03-27 07:57:34 51°15.518 2°51.719 7.909678 3.16964 30.417032 10.073178
2003-03-27 07:57:38 51°15.526 2°51.7 7.793265 3.168166 30.40285 10.376563
2003-03-27 07:57:44 51°15.539 2°51.671 8.379247 3.169535 30.419591 10.410272
2003-03-27 07:57:49 51°15.549 2°51.647 7.660594 3.16964 30.422916 10.443982
2003-03-27 07:57:54 51°15.559 2°51.624 7.860928 3.16764 30.408287 10.814785
2003-03-27 07:57:58 51°15.568 2°51.605 7.661372 3.169114 30.42836 11.11817
2003-03-27 07:58:04 51°15.581 2°51.578 7.661372 3.169114 30.42836 11.11817
2003-03-27 07:58:09 51°15.592 2°51.555 7.858164 3.168693 30.431246 10.747366
2003-03-27 07:58:14 51°15.603 2°51.533 7.974025 3.167956 30.428567 10.578819
2003-03-27 07:58:18 51°15.612 2°51.514 7.574364 3.167851 30.430394 10.309144
2003-03-27 07:58:24 51°15.625 2°51.487 8.201215 3.167219 30.425888 10.174306
2003-03-27 07:58:29 51°15.636 2°51.464 7.481873 3.16206 30.37032 9.97205
2003-03-27 07:58:34 51°15.647 2°51.441 7.481873 3.16206 30.37032 9.97205
2003-03-27 07:58:38 51°15.656 2°51.423 7.590967 3.160586 30.359064 9.39899
2003-03-27 07:58:44 51°15.668 2°51.395 7.546163 3.164797 30.406772 9.331571
2003-03-27 07:58:49 51°15.679 2°51.373 7.626106 3.163744 30.396315 9.095606
2003-03-27 07:58:54 51°15.69 2°51.35 7.585173 3.164376 30.405975 8.792221
2003-03-27 07:58:58 51°15.699 2°51.332 7.585173 3.164376 30.405975 8.792221
2003-03-27 07:59:04 51°15.713 2°51.305 7.706338 3.16027 30.365998 9.061896
2003-03-27 07:59:09 51°15.724 2°51.282 7.818107 3.160165 30.372233 8.994477
2003-03-27 07:59:14 51°15.735 2°51.26 8.04725 3.159744 30.372905 8.85964
2003-03-27 07:59:18 51°15.743 2°51.241 7.844831 3.159007 30.368009 8.893349
2003-03-27 07:59:24 51°15.756 2°51.214 7.887149 3.160059 30.382889 8.758512
2003-03-27 07:59:29 51°15.767 2°51.192 7.613649 3.160691 30.391082 8.691093
2003-03-27 07:59:34 51°15.778 2°51.169 7.613649 3.160691 30.391082 8.691093
2003-03-27 07:59:38 51°15.787 2°51.15 7.566669 3.157427 30.360039 8.623674
2003-03-27 07:59:44 51°15.801 2°51.123 7.619586 3.157743 30.366343 8.792221
2003-03-27 07:59:48 51°15.81 2°51.105 7.455827 3.156059 30.351363 8.85964
2003-03-27 07:59:54 51°15.823 2°51.078 7.936703 3.15848 30.383022 8.82593
2003-03-27 07:59:58 51°15.833 2°51.06 7.936703 3.15848 30.383022 8.82593
2003-03-27 08:00:04 51°15.846 2°51.033 7.694383 3.153005 30.324025 8.792221
2003-03-27 08:00:08 51°15.855 2°51.015 7.734955 3.154058 30.335963 8.758512
2003-03-27 08:00:14 51°15.869 2°50.988 7.697056 3.157322 30.370696 9.061896
2003-03-27 08:00:18 51°15.878 2°50.97 7.7385 3.15648 30.36026 9.196734
2003-03-27 08:00:24 51°15.892 2°50.943 7.650965 3.158059 30.374121 9.365281
2003-03-27 08:00:29 51°15.903 2°50.92 7.647998 3.159849 30.392432 9.601247
2003-03-27 08:00:34 51°15.914 2°50.898 7.647998 3.159849 30.392432 9.601247
2003-03-27 08:00:39 51°15.926 2°50.875 7.645663 3.160902 30.405111 9.500118
2003-03-27 08:00:44 51°15.937 2°50.853 7.976735 3.155006 30.343104 9.702375
2003-03-27 08:00:49 51°15.948 2°50.83 7.847789 3.157638 30.370376 9.533828
2003-03-27 08:00:54 51°15.959 2°50.808 7.563796 3.156585 30.361381 9.365281
2003-03-27 08:00:58 51°15.969 2°50.79 7.728931 3.161744 30.417025 9.601247
2003-03-27 08:01:04 51°15.982 2°50.763 7.728931 3.161744 30.417025 9.601247
2003-03-27 08:01:09 51°15.993 2°50.74 7.683252 3.159639 30.396823 9.601247
2003-03-27 08:01:14 51°16.005 2°50.718 7.634912 3.159112 30.391957 9.331571
2003-03-27 08:01:18 51°16.014 2°50.7 7.789091 3.15848 30.385232 9.4327
2003-03-27 08:01:24 51°16.027 2°50.673 7.630777 3.157217 30.373258 9.601247
2003-03-27 08:01:28 51°16.036 2°50.655 7.865679 3.157849 30.382192 9.297862
2003-03-27 08:01:34 51°16.05 2°50.628 7.865679 3.157849 30.382192 9.297862
2003-03-27 08:01:38 51°16.059 2°50.61 7.862576 3.160165 30.408325 9.500118
2003-03-27 08:01:44 51°16.072 2°50.583 7.907402 3.154795 30.352637 9.500118
2003-03-27 08:01:49 51°16.083 2°50.561 7.757732 3.161323 30.425822 9.331571
2003-03-27 08:01:54 51°16.094 2°50.539 7.821406 3.16006 30.417533 9.736084
2003-03-27 08:01:58 51°16.103 2°50.521 7.821406 3.16006 30.417533 9.736084
2003-03-27 08:02:04 51°16.116 2°50.494 7.548842 3.157954 30.396582 9.837212
2003-03-27 08:02:08 51°16.125 2°50.476 7.533836 3.161113 30.433176 10.208016
2003-03-27 08:02:14 51°16.139 2°50.45 7.591551 3.160481 30.437526 10.814785
2003-03-27 08:02:18 51°16.148 2°50.432 7.734566 3.157849 30.424252 11.65752
2003-03-27 08:02:24 51°16.161 2°50.405 7.64002 3.158797 30.449885 12.196871
2003-03-27 08:02:29 51°16.172 2°50.383 7.551911 3.158481 30.470954 12.601383
2003-03-27 08:02:34 51°16.183 2°50.36 7.551911 3.158481 30.470954 12.601383
2003-03-27 08:02:38 51°16.192 2°50.342 7.550255 3.149637 30.396533 13.140734
2003-03-27 08:02:44 51°16.205 2°50.315 7.550645 3.155007 30.471672 13.241862
2003-03-27 08:02:48 51°16.214 2°50.297 7.339709 3.156482 30.503026 13.309281
2003-03-27 08:02:54 51°16.228 2°50.27 7.381532 3.150375 30.451102 13.039606
2003-03-27 08:03:00 51°16.241 2°50.243 7.454071 3.148796 30.446834 13.005896
2003-03-27 08:03:04 51°16.25 2°50.225 7.454071 3.148796 30.446834 13.005896
2003-03-27 08:03:09 51°16.262 2°50.203 7.375915 3.152165 30.493292 12.635093
2003-03-27 08:03:14 51°16.273 2°50.181 7.647511 3.146374 30.439494 12.399127
2003-03-27 08:03:18 51°16.282 2°50.163 7.52409 3.146164 30.441699 12.028324
2003-03-27 08:03:24 51°16.295 2°50.136 7.688501 3.145953 30.445391 11.859777
2003-03-27 08:03:30 51°16.308 2°50.109 7.441775 3.147954 30.471274 11.488973
2003-03-27 08:03:34 51°16.317 2°50.091 7.441775 3.147954 30.471274 11.488973
2003-03-27 08:03:40 51°16.331 2°50.064 7.327636 3.146059 30.453955 11.320426
2003-03-27 08:03:44 51°16.34 2°50.046 7.486847 3.14848 30.482867 11.11817
2003-03-27 08:03:49 51°16.351 2°50.024 7.359842 3.146796 30.467801 11.286717
2003-03-27 08:03:54 51°16.362 2°50.001 7.352171 3.147743 30.480185 11.286717
2003-03-27 08:03:59 51°16.374 2°49.98 7.385684 3.148165 30.488421 11.320426
2003-03-27 08:04:04 51°16.385 2°49.958 7.385684 3.148165 30.488421 11.320426
2003-03-27 08:04:09 51°16.397 2°49.937 7.302799 3.153008 30.540318 11.522683
2003-03-27 08:04:14 51°16.409 2°49.915 7.451485 3.152481 30.53393 11.859777
2003-03-27 08:04:18 51°16.419 2°49.899 7.4428 3.15564 30.569275 12.23058
2003-03-27 08:04:24 51°16.433 2°49.874 7.312334 3.156798 30.586173 12.668802
2003-03-27 08:04:29 51°16.446 2°49.853 7.303777 3.157746 30.603812 12.668802
2003-03-27 08:04:34 51°16.458 2°49.833 7.303777 3.157746 30.603812 12.668802
2003-03-27 08:04:39 51°16.471 2°49.812 7.391544 3.158799 30.6166 13.107024
2003-03-27 08:04:44 51°16.484 2°49.792 7.506446 3.155009 30.578944 13.511537
2003-03-27 08:04:49 51°16.496 2°49.771 7.26528 3.15901 30.63159 13.983469
2003-03-27 08:04:54 51°16.509 2°49.751 7.394718 3.157641 30.625145 14.118306
2003-03-27 08:04:58 51°16.519 2°49.734 7.587121 3.156062 30.614939 14.152016
2003-03-27 08:05:04 51°16.534 2°49.71 7.587121 3.156062 30.614939 14.152016
2003-03-27 08:05:10 51°16.55 2°49.685 7.58493 3.156693 30.626966 13.848631
2003-03-27 08:05:14 51°16.56 2°49.669 7.589701 3.157746 30.639769 14.4554
2003-03-27 08:05:18 51°16.57 2°49.652 7.263518 3.157957 30.643531 13.91605
2003-03-27 08:05:24 51°16.585 2°49.627 7.26205 3.157115 30.634487 14.152016
2003-03-27 08:05:29 51°16.598 2°49.607 7.341371 3.154588 30.60586 13.949759
2003-03-27 08:05:34 51°16.611 2°49.586 7.341371 3.154588 30.60586 13.949759
2003-03-27 08:05:39 51°16.623 2°49.565 7.581619 3.157746 30.64277 14.118306
2003-03-27 08:05:44 51°16.636 2°49.544 7.545578 3.156483 30.629954 13.747503
2003-03-27 08:05:48 51°16.646 2°49.528 7.343766 3.15722 30.639368 13.781212
2003-03-27 08:05:54 51°16.661 2°49.503 7.220981 3.15722 30.640118 13.477828
2003-03-27 08:05:58 51°16.671 2°49.486 7.621192 3.155535 30.624279 13.275571
2003-03-27 08:06:04 51°16.687 2°49.461 7.621192 3.155535 30.624279 13.275571
2003-03-27 08:06:09 51°16.699 2°49.441 7.211041 3.155114 30.619007 13.241862
2003-03-27 08:06:14 51°16.712 2°49.42 7.48475 3.15543 30.622398 13.140734
2003-03-27 08:06:18 51°16.723 2°49.403 7.284898 3.155746 30.62579 13.073315
2003-03-27 08:06:24 51°16.738 2°49.378 7.28524 3.156483 30.634454 12.702512
2003-03-27 08:06:29 51°16.751 2°49.357 7.472753 3.153114 30.600525 12.871059
2003-03-27 08:06:34 51°16.764 2°49.336 7.472753 3.153114 30.600525 12.871059
2003-03-27 08:06:38 51°16.774 2°49.319 7.199139 3.154377 30.617091 12.668802
2003-03-27 08:06:45 51°16.792 2°49.29 7.274087 3.153956 30.614068 12.635093
2003-03-27 08:06:50 51°16.804 2°49.269 7.467827 3.15701 30.649864 12.432836
2003-03-27 08:06:54 51°16.815 2°49.251 7.543922 3.15543 30.636652 12.331708
2003-03-27 08:06:58 51°16.825 2°49.235 7.543922 3.15543 30.636652 12.331708
2003-03-27 08:07:04 51°16.84 2°49.209 7.140138 3.15364 30.622676 12.23058
2003-03-27 08:07:09 51°16.853 2°49.187 7.327539 3.153535 30.623796 12.466546
2003-03-27 08:07:14 51°16.866 2°49.166 7.44968 3.154378 30.635849 12.736221
2003-03-27 08:07:19 51°16.879 2°49.145 7.002567 3.153851 30.633195 12.466546
2003-03-27 08:07:24 51°16.891 2°49.123 7.155972 3.153641 30.634686 12.938477
2003-03-27 08:07:28 51°16.902 2°49.106 7.3955 3.153114 30.632032 13.174443
2003-03-27 08:07:34 51°16.917 2°49.08 7.3955 3.153114 30.632032 13.174443
2003-03-27 08:07:38 51°16.927 2°49.063 7.470363 3.153851 30.645213 13.309281
2003-03-27 08:07:44 51°16.942 2°49.037 7.509761 3.151851 30.627462 13.713794
2003-03-27 08:07:49 51°16.955 2°49.015 7.423767 3.153009 30.643672 14.050888
2003-03-27 08:07:54 51°16.968 2°48.993 7.098157 3.15322 30.652703 14.556529
2003-03-27 08:07:58 51°16.978 2°48.976 7.41542 3.152588 30.648916 14.927332
2003-03-27 08:08:04 51°16.993 2°48.95 7.41542 3.152588 30.648916 14.927332
2003-03-27 08:08:09 51°17.006 2°48.928 7.328858 3.152377 30.648907 15.63523
2003-03-27 08:08:14 51°17.019 2°48.906 7.121995 3.152904 30.659084 16.17458
2003-03-27 08:08:20 51°17.034 2°48.88 7.075831 3.153641 30.669271 16.646512
2003-03-27 08:08:24 51°17.044 2°48.863 7.024427 3.153115 30.665865 16.71393
2003-03-27 08:08:29 51°17.057 2°48.841 6.97888 3.151114 30.649606 17.219571
2003-03-27 08:08:34 51°17.07 2°48.821 6.97888 3.151114 30.649606 17.219571
2003-03-27 08:08:38 51°17.081 2°48.804 7.004532 3.152694 30.670367 17.489247
2003-03-27 08:08:44 51°17.097 2°48.779 7.439628 3.15143 30.663544 17.624084
2003-03-27 08:08:50 51°17.114 2°48.755 7.198552 3.150167 30.655213 17.691503
2003-03-27 08:08:54 51°17.125 2°48.739 7.310574 3.149535 30.654436 17.725212
2003-03-27 08:08:59 51°17.138 2°48.719 7.313556 3.148061 30.646846 17.556665
2003-03-27 08:09:04 51°17.152 2°48.699 7.313556 3.148061 30.646846 17.556665
2003-03-27 08:09:09 51°17.166 2°48.678 7.501425 3.146482 30.63586 17.556665
2003-03-27 08:09:14 51°17.179 2°48.658 6.887787 3.146903 30.648685 17.421828
2003-03-27 08:09:18 51°17.19 2°48.642 6.820663 3.146587 30.650557 17.421828
2003-03-27 08:09:24 51°17.206 2°48.618 6.814898 3.145956 30.649779 17.624084
2003-03-27 08:09:29 51°17.22 2°48.597 6.811152 3.145114 30.645224 17.3207
2003-03-27 08:09:34 51°17.234 2°48.577 6.811152 3.145114 30.645224 17.3207
2003-03-27 08:09:40 51°17.25 2°48.552 6.809428 3.145745 30.652788 17.455537
2003-03-27 08:09:44 51°17.261 2°48.536 6.845886 3.145851 30.65694 25.478375
2003-03-27 08:09:48 51°17.271 2°48.52 6.803168 3.145114 30.657292 20.320836
2003-03-27 08:09:54 51°17.288 2°48.496 6.791831 3.145324 30.667112 17.489247
2003-03-27 08:09:58 51°17.298 2°48.48 6.789367 3.146693 30.687921 16.916187
2003-03-27 08:10:04 51°17.314 2°48.456 6.789367 3.146693 30.687921 16.916187
2003-03-27 08:10:09 51°17.327 2°48.435 6.784239 3.143535 30.659128 17.219571
2003-03-27 08:10:14 51°17.34 2°48.415 6.785521 3.14722 30.706456 18.331982
2003-03-27 08:10:20 51°17.357 2°48.392 6.792867 3.146167 30.698873 19.747777
2003-03-27 08:10:24 51°17.367 2°48.375 6.798634 3.147536 30.718948 22.174853
2003-03-27 08:10:29 51°17.381 2°48.355 6.806668 3.14922 30.7432 22.478238
2003-03-27 08:10:34 51°17.394 2°48.335 6.806668 3.14922 30.7432 22.478238
2003-03-27 08:10:38 51°17.405 2°48.319 6.813616 3.151642 30.775427 23.658067
2003-03-27 08:10:44 51°17.422 2°48.295 6.816425 3.153116 30.795909 22.882751
2003-03-27 08:10:50 51°17.438 2°48.27 6.816376 3.153011 30.795531 21.938888
2003-03-27 08:10:54 51°17.449 2°48.254 6.819086 3.15259 30.79022 21.534375
2003-03-27 08:10:59 51°17.463 2°48.234 6.820417 3.153642 30.797041 21.028734
2003-03-27 08:11:05 51°17.479 2°48.21 6.820417 3.153642 30.797041 21.028734
2003-03-27 08:11:09 51°17.49 2°48.194 6.821057 3.151958 30.774287 20.590512
2003-03-27 08:11:14 51°17.503 2°48.172 6.817509 3.155222 30.805752 20.185999
2003-03-27 08:11:18 51°17.514 2°48.155 6.817509 3.151852 30.766323 20.11858
2003-03-27 08:11:24 51°17.529 2°48.129 6.817657 3.154485 30.790959 19.444392
2003-03-27 08:11:30 51°17.543 2°48.102 6.81884 3.15817 30.830004 19.039879
2003-03-27 08:11:34 51°17.553 2°48.084 6.81884 3.15817 30.830004 19.039879
2003-03-27 08:11:40 51°17.567 2°48.057 6.807062 3.155116 30.797782 18.837623
2003-03-27 08:11:44 51°17.576 2°48.038 6.796169 3.152905 30.773144 18.3994
2003-03-27 08:11:48 51°17.585 2°48.02 6.778274 3.153011 30.772007 18.129725
2003-03-27 08:11:54 51°17.598 2°47.992 6.811842 3.15659 30.814463 17.826341
2003-03-27 08:11:58 51°17.607 2°47.973 6.811842 3.15659 30.814463 17.826341
2003-03-27 08:12:04 51°17.621 2°47.946 6.759337 3.154485 30.790201 17.86005
2003-03-27 08:12:09 51°17.632 2°47.923 6.748486 3.157117 30.820909 18.096016
2003-03-27 08:12:14 51°17.644 2°47.9 6.740839 3.156485 30.818642 18.197144
2003-03-27 08:12:18 51°17.653 2°47.882 6.736547 3.159012 30.855831 18.43311
2003-03-27 08:12:24 51°17.667 2°47.854 6.729738 3.163013 30.907463 18.837623
2003-03-27 08:12:29 51°17.678 2°47.831 6.727814 3.161118 30.897639 18.871332
2003-03-27 08:12:34 51°17.69 2°47.807 6.727814 3.161118 30.897639 18.871332
2003-03-27 08:12:40 51°17.703 2°47.779 6.729047 3.162487 30.920074 19.242136
2003-03-27 08:12:44 51°17.712 2°47.76 6.735215 3.165014 30.956585 19.781486
2003-03-27 08:12:49 51°17.722 2°47.736 6.740297 3.165225 30.965745 20.354546
2003-03-27 08:12:54 51°17.733 2°47.712 6.750706 3.170384 31.027739 20.455674
2003-03-27 08:13:00 51°17.745 2°47.682 6.75988 3.171437 31.042978 20.185999
2003-03-27 08:13:04 51°17.753 2°47.662 6.75988 3.171437 31.042978 20.185999
2003-03-27 08:13:09 51°17.764 2°47.638 6.758302 3.170911 31.041109 19.57923
2003-03-27 08:13:14 51°17.773 2°47.612 6.797895 3.17049 31.03808 18.331982
2003-03-27 08:13:18 51°17.781 2°47.593 6.75988 3.168173 31.012218 17.084734
2003-03-27 08:13:24 51°17.793 2°47.562 6.753468 3.163646 30.958586 15.736358
2003-03-27 08:13:30 51°17.804 2°47.531 6.746858 3.163014 30.947922 14.758785
2003-03-27 08:13:34 51°17.809 2°47.51 6.746858 3.163014 30.947922 14.758785
2003-03-27 08:13:40 51°17.819 2°47.477 6.743553 3.160697 30.917497 13.680084
2003-03-27 08:13:44 51°17.824 2°47.456 6.782366 3.159329 30.898103 12.938477
2003-03-27 08:13:49 51°17.83 2°47.428 6.740593 3.158907 30.893545 12.668802
2003-03-27 08:13:54 51°17.836 2°47.4 6.730182 3.158486 30.890513 12.365418
2003-03-27 08:13:58 51°17.84 2°47.378 6.724063 3.154591 30.851403 11.859777
2003-03-27 08:14:04 51°17.845 2°47.345 6.724063 3.154591 30.851403 11.859777
2003-03-27 08:14:09 51°17.849 2°47.316 6.71898 3.158486 30.896616 11.623811
2003-03-27 08:14:14 51°17.853 2°47.288 6.715822 3.157433 30.888271 11.354136
2003-03-27 08:14:20 51°17.856 2°47.254 6.71212 3.159434 30.912982 12.399127
2003-03-27 08:14:24 51°17.859 2°47.231 6.70827 3.16512 30.978376 13.578956
2003-03-27 08:14:28 51°17.861 2°47.209 6.707529 3.168805 31.022128 15.230717
2003-03-27 08:14:34 51°17.865 2°47.175 6.707529 3.168805 31.022128 15.230717
2003-03-27 08:14:38 51°17.866 2°47.151 6.706295 3.175754 31.102044 16.140871
2003-03-27 08:14:44 51°17.869 2°47.117 6.703975 3.181124 31.163341 16.74764
2003-03-27 08:14:50 51°17.871 2°47.084 6.705999 3.187968 31.242202 17.219571
2003-03-27 08:14:54 51°17.872 2°47.062 6.706443 3.189021 31.258262 17.455537
2003-03-27 08:14:58 51°17.874 2°47.039 6.705999 3.189232 31.262866 17.455537
2003-03-27 08:15:04 51°17.877 2°47.004 6.705999 3.189232 31.262866 17.455537
2003-03-27 08:15:10 51°17.879 2°46.97 6.704469 3.189337 31.264782 17.657794
2003-03-27 08:15:14 51°17.881 2°46.947 6.708171 3.191338 31.288041 17.792631
2003-03-27 08:15:18 51°17.883 2°46.924 6.705308 3.189021 31.26522 17.657794
2003-03-27 08:15:24 51°17.887 2°46.89 6.702791 3.191233 31.28922 17.28699
2003-03-27 08:15:30 51°17.891 2°46.856 6.705752 3.188706 31.263338 17.084734
2003-03-27 08:15:34 51°17.893 2°46.834 6.705752 3.188706 31.263338 17.084734
2003-03-27 08:15:39 51°17.897 2°46.807 6.705259 3.190706 31.285053 17.455537
2003-03-27 08:15:44 51°17.9 2°46.779 6.707628 3.187547 31.250767 17.354409
2003-03-27 08:15:48 51°17.903 2°46.756 6.708961 3.186073 31.232452 17.489247
2003-03-27 08:15:54 51°17.907 2°46.721 6.707974 3.187337 31.248482 17.556665
2003-03-27 08:15:58 51°17.909 2°46.697 6.708813 3.18502 31.224115 17.489247
2003-03-27 08:16:04 51°17.913 2°46.662 6.708813 3.18502 31.224115 17.489247
2003-03-27 08:16:09 51°17.917 2°46.633 6.707184 3.186916 31.244684 17.388118
2003-03-27 08:16:14 51°17.92 2°46.606 6.710047 3.183125 31.202004 17.388118
2003-03-27 08:16:20 51°17.924 2°46.571 6.791388 3.183546 31.207346 17.219571
2003-03-27 08:16:24 51°17.927 2°46.549 6.710343 3.182283 31.192093 16.74764
2003-03-27 08:16:29 51°17.93 2°46.521 6.712564 3.180703 31.1765 16.208289
2003-03-27 08:16:34 51°17.934 2°46.493 6.712564 3.180703 31.1765 16.208289
2003-03-27 08:16:38 51°17.936 2°46.47 6.710343 3.179966 31.168503 16.006033
2003-03-27 08:16:44 51°17.94 2°46.436 6.70901 3.181019 31.178384 15.736358
2003-03-27 08:16:50 51°17.944 2°46.401 6.708862 3.178703 31.151713 15.298136
2003-03-27 08:16:54 51°17.947 2°46.378 6.707924 3.17965 31.161993 15.06217
2003-03-27 08:16:59 51°17.95 2°46.349 6.712663 3.180282 31.168846 14.758785
2003-03-27 08:17:04 51°17.953 2°46.321 6.712663 3.180282 31.168846 14.758785
2003-03-27 08:17:09 51°17.957 2°46.292 6.716266 3.179018 31.153599 14.354272
2003-03-27 08:17:14 51°17.96 2°46.263 6.722237 3.177544 31.13992 14.387982
2003-03-27 08:17:18 51°17.963 2°46.241 6.723866 3.17607 31.123931 13.983469
2003-03-27 08:17:25 51°17.968 2°46.2 6.809132 3.174596 31.108712 13.646375
2003-03-27 08:17:30 51°17.971 2°46.172 6.733883 3.175228 31.114794 13.039606
2003-03-27 08:17:34 51°17.974 2°46.149 6.733883 3.175228 31.114794 13.039606
2003-03-27 08:17:39 51°17.978 2°46.121 6.74005 3.171859 31.076716 12.736221
2003-03-27 08:17:44 51°17.981 2°46.092 6.741925 3.173333 31.090395 12.365418
2003-03-27 08:17:49 51°17.985 2°46.063 6.745674 3.173333 31.086551 11.826067
2003-03-27 08:17:54 51°17.988 2°46.034 6.748141 3.172911 31.079679 11.320426
2003-03-27 08:18:00 51°17.992 2°46 6.747006 3.1687 31.030955 11.050751
2003-03-27 08:18:05 51°17.995 2°45.971 6.747006 3.1687 31.030955 11.050751
2003-03-27 08:18:09 51°17.997 2°45.948 6.750903 3.169963 31.039279 10.578819
2003-03-27 08:18:14 51°18.001 2°45.92 6.751544 3.169015 31.025943 10.814785
2003-03-27 08:18:18 51°18.003 2°45.897 6.752629 3.174491 31.081434 10.814785
2003-03-27 08:18:24 51°18.008 2°45.863 6.753221 3.178386 31.122118 10.679947
2003-03-27 08:18:30 51°18.013 2°45.828 6.753517 3.176912 31.101531 10.54511
2003-03-27 08:18:34 51°18.016 2°45.805 6.753517 3.176912 31.101531 10.54511
2003-03-27 08:18:40 51°18.02 2°45.77 6.756526 3.181124 31.146404 11.11817
2003-03-27 08:18:44 51°18.024 2°45.747 6.757858 3.181229 31.147545 10.781076
2003-03-27 08:18:50 51°18.028 2°45.712 6.760472 3.176596 31.095036 10.848494
2003-03-27 08:18:54 51°18.031 2°45.69 6.763825 3.178702 31.116316 10.410272
2003-03-27 08:18:58 51°18.034 2°45.67 6.764812 3.177544 31.102998 10.410272
2003-03-27 08:19:04 51°18.039 2°45.641 6.764812 3.177544 31.102998 10.410272
2003-03-27 08:19:09 51°18.042 2°45.617 6.765157 3.175754 31.082839 10.005759
2003-03-27 08:19:14 51°18.045 2°45.594 6.768313 3.175228 31.076368 9.769794
2003-03-27 08:19:20 51°18.047 2°45.566 6.767623 3.172911 31.048976 9.39899
2003-03-27 08:19:24 51°18.048 2°45.547 6.766982 3.170805 31.023105 9.39899
2003-03-27 08:19:29 51°18.049 2°45.525 6.766636 3.171226 31.027666 9.061896
2003-03-27 08:19:34 51°18.049 2°45.504 6.766636 3.171226 31.027666 9.061896
2003-03-27 08:19:38 51°18.049 2°45.487 6.765256 3.171226 31.025368 8.960768
2003-03-27 08:19:44 51°18.049 2°45.461 6.766587 3.173332 31.046637 8.927059
2003-03-27 08:19:49 51°18.048 2°45.44 6.765995 3.171647 31.02763 8.792221
2003-03-27 08:19:54 51°18.047 2°45.419 6.770286 3.173122 31.04359 8.353999
2003-03-27 08:19:58 51°18.047 2°45.402 6.76925 3.173227 31.04473 8.185452
2003-03-27 08:20:04 51°18.045 2°45.378 6.76925 3.173227 31.04473 8.185452
2003-03-27 08:20:09 51°18.043 2°45.358 6.771765 3.171542 31.02649 8.219161
2003-03-27 08:20:14 51°18.042 2°45.339 6.770483 3.171858 31.029144 8.353999
2003-03-27 08:20:19 51°18.04 2°45.318 6.772801 3.172069 31.032956 8.387708
2003-03-27 08:20:24 51°18.04 2°45.298 6.774477 3.173016 31.043983 8.252871
2003-03-27 08:20:28 51°18.04 2°45.282 6.815193 3.171753 31.028004 8.050614
2003-03-27 08:20:34 51°18.042 2°45.26 6.815193 3.171753 31.028004 8.050614
2003-03-27 08:20:38 51°18.044 2°45.247 6.780542 3.170068 31.009765 8.016905
2003-03-27 08:20:44 51°18.048 2°45.228 6.780936 3.168594 30.991511 7.780939
2003-03-27 08:20:49 51°18.052 2°45.215 6.780394 3.169857 31.003658 7.74723
2003-03-27 08:20:54 51°18.056 2°45.203 6.781873 3.172279 31.027575 7.848358
2003-03-27 08:20:58 51°18.06 2°45.193 6.781281 3.170805 31.009323 7.544973
2003-03-27 08:21:04 51°18.066 2°45.181 6.781281 3.170805 31.009323 7.544973
2003-03-27 08:21:09 51°18.072 2°45.173 6.782711 3.170594 31.005513 7.039332
2003-03-27 08:21:14 51°18.078 2°45.165 6.781577 3.16912 30.987266 7.207879
2003-03-27 08:21:18 51°18.083 2°45.16 6.78138 3.16912 30.986501 7.342717
2003-03-27 08:21:24 51°18.089 2°45.153 6.782908 3.168804 30.982318 7.17417
2003-03-27 08:21:28 51°18.094 2°45.149 6.785028 3.168489 30.9789 6.971913
2003-03-27 08:21:34 51°18.1 2°45.144 6.785028 3.168489 30.9789 6.971913
2003-03-27 08:21:39 51°18.106 2°45.141 6.784782 3.168278 30.975093 6.904494
2003-03-27 08:21:44 51°18.111 2°45.137 6.786014 3.166172 30.954601 7.14046
2003-03-27 08:21:49 51°18.116 2°45.134 6.783401 3.167225 30.965994 7.073042
2003-03-27 08:21:54 51°18.121 2°45.131 6.784092 3.166804 30.961437 7.14046
2003-03-27 08:21:58 51°18.125 2°45.129 6.792029 3.166067 30.952698 6.971913
2003-03-27 08:22:04 51°18.131 2°45.126 6.792029 3.166067 30.952698 6.971913
2003-03-27 08:22:09 51°18.136 2°45.124 6.787444 3.165225 30.943585 6.971913
2003-03-27 08:22:14 51°18.14 2°45.123 6.786507 3.165014 30.940544 7.073042
2003-03-27 08:22:18 51°18.143 2°45.122 6.786606 3.164066 30.928766 7.410136
2003-03-27 08:22:24 51°18.147 2°45.12 6.786014 3.164066 30.931055 7.410136
2003-03-27 08:22:29 51°18.15 2°45.119 6.784535 3.164277 30.931044 7.511264
2003-03-27 08:22:34 51°18.153 2°45.119 6.784535 3.164277 30.931044 7.511264
2003-03-27 08:22:38 51°18.155 2°45.119 6.784387 3.162908 30.917 7.241589
2003-03-27 08:22:44 51°18.158 2°45.117 6.785916 3.16375 30.926112 7.342717
2003-03-27 08:22:48 51°18.159 2°45.117 6.789022 3.16375 30.925349 7.443845
2003-03-27 08:22:54 51°18.161 2°45.118 6.787937 3.163329 30.919267 7.578683
2003-03-27 08:22:58 51°18.162 2°45.118 6.786212 3.16375 30.925349 7.443845
2003-03-27 08:23:04 51°18.164 2°45.119 6.786212 3.16375 30.925349 7.443845
2003-03-27 08:23:08 51°18.165 2°45.119 6.783352 3.163645 30.925736 7.511264
2003-03-27 08:23:14 51°18.167 2°45.119 6.781972 3.163013 30.918139 7.342717
2003-03-27 08:23:18 51°18.168 2°45.119 6.779753 3.163119 30.917752 7.443845
2003-03-27 08:23:24 51°18.17 2°45.119 6.775266 3.163961 30.926101 7.646101
2003-03-27 08:23:29 51°18.171 2°45.118 6.776252 3.164382 30.930656 8.050614
2003-03-27 08:23:34 51°18.172 2°45.118 6.776252 3.164382 30.930656 8.050614
2003-03-27 08:23:38 51°18.173 2°45.119 6.776154 3.164172 30.929142 8.252871
2003-03-27 08:23:44 51°18.175 2°45.119 6.778717 3.165435 30.9451 8.657383
2003-03-27 08:23:48 51°18.176 2°45.119 6.776647 3.165646 30.948142 8.657383
2003-03-27 08:23:54 51°18.178 2°45.119 6.774428 3.164488 30.938665 8.927059
2003-03-27 08:23:58 51°18.179 2°45.119 6.772899 3.166593 30.962978 8.927059
2003-03-27 08:24:04 51°18.181 2°45.119 6.772899 3.166593 30.962978 8.927059
2003-03-27 08:24:08 51°18.182 2°45.119 6.768412 3.166804 30.966021 8.85964
2003-03-27 08:24:14 51°18.184 2°45.12 6.765946 3.167015 30.969829 8.691093
2003-03-27 08:24:18 51°18.185 2°45.12 6.765108 3.16712 30.96944 8.927059
2003-03-27 08:24:24 51°18.186 2°45.12 6.764516 3.16712 30.970968 9.095606
2003-03-27 08:24:29 51°18.188 2°45.12 6.76491 3.167962 30.980084 9.533828
2003-03-27 08:24:34 51°18.189 2°45.12 6.76491 3.167962 30.980084 9.533828
2003-03-27 08:24:38 51°18.189 2°45.12 6.764121 3.168594 30.991511 10.005759
2003-03-27 08:24:44 51°18.191 2°45.12 6.761803 3.169752 31.004814 10.073178
2003-03-27 08:24:49 51°18.192 2°45.12 7.481093 3.170173 31.010905 9.870922
2003-03-27 08:24:54 51°18.193 2°45.121 6.759288 3.170068 31.01053 10.174306
2003-03-27 08:24:58 51°18.194 2°45.121 6.759929 3.170384 31.017013 10.106888
2003-03-27 08:25:04 51°18.196 2°45.121 6.759929 3.170384 31.017013 10.106888
2003-03-27 08:25:08 51°18.197 2°45.12 6.763036 3.170173 31.013967 9.870922
2003-03-27 08:25:14 51°18.198 2°45.12 6.764467 3.170595 31.018527 10.309144
2003-03-27 08:25:19 51°18.2 2°45.12 6.763628 3.171016 31.026152 10.275435
2003-03-27 08:25:24 51°18.201 2°45.12 6.768806 3.170489 31.020451 10.342853
2003-03-27 08:25:29 51°18.203 2°45.12 6.76782 3.171542 31.034152 10.309144
2003-03-27 08:25:34 51°18.204 2°45.12 6.76782 3.171542 31.034152 10.309144
2003-03-27 08:25:38 51°18.205 2°45.119 6.767475 3.171226 31.027666 10.106888
2003-03-27 08:25:44 51°18.207 2°45.119 6.764023 3.171226 31.027666 10.039469
2003-03-27 08:25:48 51°18.208 2°45.119 6.770927 3.170595 31.020825 10.005759
2003-03-27 08:25:54 51°18.21 2°45.118 6.77497 3.170384 31.018545 9.97205
2003-03-27 08:25:58 51°18.212 2°45.118 6.776893 3.168805 30.999148 10.241725
2003-03-27 08:26:04 51°18.214 2°45.117 6.776893 3.168805 30.999148 10.241725
2003-03-27 08:26:09 51°18.216 2°45.117 6.780394 3.170384 31.016247 10.005759
2003-03-27 08:26:14 51°18.218 2°45.117 6.786754 3.170279 31.014342 10.140597
2003-03-27 08:26:18 51°18.22 2°45.117 6.792029 3.16912 31.001037 9.837212
2003-03-27 08:26:24 51°18.223 2°45.117 6.791684 3.170805 31.01851 9.601247
2003-03-27 08:26:28 51°18.224 2°45.117 6.789761 3.170279 31.010513 9.39899
2003-03-27 08:26:34 51°18.226 2°45.116 6.789761 3.170279 31.010513 9.39899
2003-03-27 08:26:38 51°18.228 2°45.116 6.790353 3.168805 30.992261 9.163024
2003-03-27 08:26:44 51°18.231 2°45.115 6.790008 3.168489 30.984253 8.893349
2003-03-27 08:26:49 51°18.233 2°45.114 6.790057 3.167436 30.970565 8.657383
2003-03-27 08:26:54 51°18.235 2°45.114 6.790698 3.16554 30.947003 8.724802
2003-03-27 08:26:58 51°18.237 2°45.114 6.79331 3.166277 30.953449 8.421418
2003-03-27 08:27:04 51°18.24 2°45.114 6.79331 3.166277 30.953449 8.421418
2003-03-27 08:27:09 51°18.243 2°45.114 6.790993 3.165646 30.945087 8.421418
2003-03-27 08:27:14 51°18.245 2°45.113 6.79193 3.164909 30.937878 8.050614
2003-03-27 08:27:18 51°18.248 2°45.112 6.791388 3.164803 30.935975 8.151742
2003-03-27 08:27:24 51°18.251 2°45.112 6.791881 3.165014 30.939017 7.949486
2003-03-27 08:27:29 51°18.253 2°45.112 6.793162 3.164593 30.932934 8.219161
2003-03-27 08:27:34 51°18.256 2°45.111 6.793162 3.164593 30.932934 8.219161
2003-03-27 08:27:38 51°18.259 2°45.11 6.792916 3.163856 30.923436 8.151742
2003-03-27 08:27:44 51°18.263 2°45.11 6.796859 3.163119 30.916227 8.151742
2003-03-27 08:27:49 51°18.266 2°45.11 6.795036 3.16354 30.920782 8.016905
2003-03-27 08:27:54 51°18.269 2°45.11 6.794 3.163013 30.915088 7.646101
2003-03-27 08:27:59 51°18.272 2°45.109 6.795183 3.162698 30.910909 7.915777
2003-03-27 08:28:04 51°18.276 2°45.108 6.795183 3.162698 30.910909 7.915777
2003-03-27 08:28:09 51°18.278 2°45.108 6.795134 3.162487 30.906344 7.814648
2003-03-27 08:28:14 51°18.281 2°45.108 6.793508 3.162487 30.907106 7.679811
2003-03-27 08:28:19 51°18.284 2°45.109 6.793064 3.160802 30.888126 7.477554
2003-03-27 08:28:24 51°18.287 2°45.109 6.793508 3.162697 30.908621 7.544973
2003-03-27 08:28:29 51°18.29 2°45.109 6.794986 3.162382 30.905205 7.612392
2003-03-27 08:28:34 51°18.293 2°45.11 6.794986 3.162382 30.905205 7.612392
2003-03-27 08:28:38 51°18.296 2°45.11 6.79336 3.162697 30.907859 7.679811
2003-03-27 08:28:44 51°18.3 2°45.11 6.793162 3.162487 30.907106 7.646101
2003-03-27 08:28:48 51°18.303 2°45.11 6.796613 3.159749 30.878264 7.71352
2003-03-27 08:28:54 51°18.307 2°45.111 6.795529 3.162487 30.905582 7.74723
2003-03-27 08:28:58 51°18.31 2°45.111 6.797254 3.162487 30.906344 7.646101
2003-03-27 08:29:04 51°18.314 2°45.11 6.797254 3.162487 30.906344 7.646101
2003-03-27 08:29:09 51°18.318 2°45.11 6.798387 3.162487 30.907106 7.612392
2003-03-27 08:29:14 51°18.321 2°45.11 6.797057 3.162592 30.908245 7.309007
2003-03-27 08:29:18 51°18.324 2°45.11 6.794641 3.16196 30.899888 7.511264
2003-03-27 08:29:24 51°18.329 2°45.111 6.797352 3.162066 30.900265 7.17417
2003-03-27 08:29:28 51°18.331 2°45.111 6.799718 3.162487 30.906344 7.207879
2003-03-27 08:29:34 51°18.336 2°45.111 6.799718 3.162487 30.906344 7.207879
2003-03-27 08:29:38 51°18.338 2°45.111 6.796909 3.162066 30.900265 7.106751
2003-03-27 08:29:44 51°18.342 2°45.111 6.799669 3.162066 30.900265 7.073042
2003-03-27 08:29:48 51°18.345 2°45.111 6.792374 3.162592 30.905958 7.005623
2003-03-27 08:29:54 51°18.349 2°45.112 6.794641 3.162382 30.902918 7.039332
2003-03-27 08:29:59 51°18.353 2°45.112 6.794838 3.159539 30.871417 6.837076
2003-03-27 08:30:04 51°18.356 2°45.112 6.794838 3.159539 30.871417 6.837076
2003-03-27 08:30:09 51°18.36 2°45.112 6.795726 3.160065 30.876348 7.14046
2003-03-27 08:30:14 51°18.365 2°45.112 6.796219 3.161645 30.894948 7.410136
2003-03-27 08:30:18 51°18.368 2°45.113 6.794395 3.163329 30.912403 7.544973
2003-03-27 08:30:24 51°18.373 2°45.113 6.794247 3.16375 30.919246 7.207879
2003-03-27 08:30:29 51°18.377 2°45.114 6.796071 3.163224 30.914315 7.039332
2003-03-27 08:30:34 51°18.382 2°45.114 6.796071 3.163224 30.914315 7.039332
2003-03-27 08:30:38 51°18.385 2°45.115 6.797007 3.160171 30.882056 6.971913
2003-03-27 08:30:44 51°18.39 2°45.116 6.800113 3.163224 30.914315 7.275298
2003-03-27 08:30:49 51°18.395 2°45.117 6.798535 3.163856 30.921147 7.241589
2003-03-27 08:30:54 51°18.399 2°45.119 6.802133 3.16354 30.919257 7.073042
2003-03-27 08:30:59 51°18.404 2°45.12 6.799225 3.163645 30.91887 6.938204
2003-03-27 08:31:04 51°18.409 2°45.121 6.799225 3.163645 30.91887 6.938204
2003-03-27 08:31:09 51°18.413 2°45.123 6.798338 3.16375 30.920009 6.870785
2003-03-27 08:31:14 51°18.417 2°45.125 6.799028 3.163119 30.912414 6.769657
2003-03-27 08:31:19 51°18.421 2°45.127 6.797895 3.163329 30.913166 6.702238
2003-03-27 08:31:24 51°18.425 2°45.129 6.797402 3.163224 30.90974 6.60111
2003-03-27 08:31:29 51°18.429 2°45.132 6.796909 3.163329 30.911641 6.735947
2003-03-27 08:31:34 51°18.433 2°45.134 6.796909 3.163329 30.911641 6.735947
2003-03-27 08:31:38 51°18.436 2°45.135 6.796564 3.163645 30.916582 6.634819
2003-03-27 08:31:44 51°18.441 2°45.139 6.796514 3.160802 30.884317 6.702238
2003-03-27 08:31:48 51°18.445 2°45.141 6.796367 3.160065 30.874063 6.735947
2003-03-27 08:31:54 51°18.45 2°45.146 6.796169 3.163434 30.914304 6.769657
2003-03-27 08:31:58 51°18.454 2°45.15 6.799225 3.16354 30.915443 6.702238
2003-03-27 08:32:04 51°18.459 2°45.154 6.799225 3.16354 30.915443 6.702238
2003-03-27 08:32:09 51°18.463 2°45.158 6.798387 3.163224 30.911265 6.803366
2003-03-27 08:32:14 51°18.467 2°45.162 6.79819 3.163329 30.914691 6.803366
2003-03-27 08:32:18 51°18.469 2°45.164 6.797697 3.163329 30.913928 6.702238
2003-03-27 08:32:24 51°18.474 2°45.169 6.796021 3.163856 30.918096 6.769657
2003-03-27 08:32:28 51°18.476 2°45.172 6.794 3.163013 30.90975 6.60111
2003-03-27 08:32:34 51°18.48 2°45.176 6.794 3.163013 30.90975 6.60111
2003-03-27 08:32:38 51°18.483 2°45.18 6.797993 3.163013 30.908987 6.735947
2003-03-27 08:32:44 51°18.487 2°45.184 6.794543 3.162697 30.904809 6.702238
2003-03-27 08:32:48 51°18.49 2°45.187 6.836182 3.163329 30.913928 6.938204
2003-03-27 08:32:54 51°18.495 2°45.192 6.796021 3.163013 30.910512 6.904494
2003-03-27 08:32:59 51°18.499 2°45.196 6.799176 3.163435 30.91583 6.837076
2003-03-27 08:33:04 51°18.503 2°45.2 6.799176 3.163435 30.91583 6.837076
2003-03-27 08:33:09 51°18.507 2°45.204 6.797204 3.163224 30.913552 6.971913
2003-03-27 08:33:14 51°18.511 2°45.208 6.795824 3.163329 30.916216 7.106751
2003-03-27 08:33:18 51°18.514 2°45.212 6.796662 3.163329 30.916216 7.14046
2003-03-27 08:33:24 51°18.519 2°45.217 6.794198 3.163645 30.91887 7.241589
2003-03-27 08:33:29 51°18.522 2°45.221 6.793409 3.163329 30.914691 7.073042
2003-03-27 08:33:34 51°18.526 2°45.225 6.793409 3.163329 30.914691 7.073042
2003-03-27 08:33:38 51°18.529 2°45.228 6.79262 3.163435 30.915067 7.207879
2003-03-27 08:33:44 51°18.534 2°45.233 6.793508 3.163329 30.916216 7.241589
2003-03-27 08:33:49 51°18.537 2°45.238 6.796071 3.163435 30.915067 7.241589
2003-03-27 08:33:54 51°18.541 2°45.242 6.796219 3.163224 30.914315 7.443845
2003-03-27 08:33:59 51°18.545 2°45.247 6.79888 3.163119 30.914701 7.679811
2003-03-27 08:34:04 51°18.549 2°45.252 6.79888 3.163119 30.914701 7.679811
2003-03-27 08:34:09 51°18.552 2°45.256 6.797204 3.163645 30.921158 7.477554
2003-03-27 08:34:14 51°18.555 2°45.261 6.797007 3.163435 30.918118 7.544973
2003-03-27 08:34:19 51°18.558 2°45.265 6.79888 3.163435 30.918118 7.309007
2003-03-27 08:34:24 51°18.561 2°45.269 6.798831 3.163013 30.913563 7.443845
2003-03-27 08:34:29 51°18.565 2°45.273 6.797303 3.163013 30.9128 7.275298
2003-03-27 08:34:34 51°18.568 2°45.278 6.797303 3.163013 30.9128 7.275298
2003-03-27 08:34:38 51°18.57 2°45.282 6.798535 3.162908 30.910899 7.544973
2003-03-27 08:34:44 51°18.574 2°45.287 6.801345 3.163329 30.911641 7.039332
2003-03-27 08:34:48 51°18.577 2°45.29 6.796465 3.162697 30.907859 6.837076
2003-03-27 08:34:54 51°18.582 2°45.294 6.790599 3.162171 30.902166 6.837076
2003-03-27 08:34:58 51°18.584 2°45.297 6.787543 3.162066 30.899503 6.769657
2003-03-27 08:35:04 51°18.589 2°45.301 6.787543 3.162066 30.899503 6.769657
2003-03-27 08:35:09 51°18.592 2°45.305 6.78705 3.162276 30.902542 6.735947
2003-03-27 08:35:14 51°18.596 2°45.309 6.788775 3.162171 30.899879 6.735947
2003-03-27 08:35:19 51°18.6 2°45.313 6.788578 3.16196 30.89684 7.241589
2003-03-27 08:35:24 51°18.603 2°45.317 6.794592 3.162698 30.909384 7.14046
2003-03-27 08:35:28 51°18.604 2°45.321 6.796859 3.16375 30.922297 7.342717
2003-03-27 08:35:34 51°18.608 2°45.326 6.796859 3.16375 30.922297 7.342717
2003-03-27 08:35:38 51°18.61 2°45.329 6.798683 3.163224 30.919654 7.342717
2003-03-27 08:35:44 51°18.614 2°45.334 6.800507 3.164277 30.93257 7.207879
2003-03-27 08:35:49 51°18.618 2°45.337 6.802281 3.163645 30.924973 6.904494
2003-03-27 08:35:54 51°18.621 2°45.341 6.802626 3.163645 30.92421 6.702238
2003-03-27 08:35:58 51°18.624 2°45.344 6.805633 3.16354 30.920782 6.60111
2003-03-27 08:36:04 51°18.628 2°45.349 6.805633 3.16354 30.920782 6.60111
2003-03-27 08:36:09 51°18.631 2°45.354 6.806914 3.162487 30.907869 6.365144
2003-03-27 08:36:14 51°18.635 2°45.357 6.807801 3.162697 30.908621 5.994341
2003-03-27 08:36:18 51°18.638 2°45.36 6.808146 3.162171 30.899879 6.02805
2003-03-27 08:36:24 51°18.641 2°45.365 6.804943 3.162066 30.89874 5.724665
2003-03-27 08:36:29 51°18.645 2°45.368 6.806372 3.162171 30.89683 5.724665
2003-03-27 08:36:34 51°18.648 2°45.372 6.806372 3.162171 30.89683 5.724665
2003-03-27 08:36:38 51°18.651 2°45.375 6.806471 3.161645 30.889615 5.690956
2003-03-27 08:36:44 51°18.655 2°45.379 6.806224 3.161329 30.886961 5.657247
2003-03-27 08:36:49 51°18.658 2°45.383 6.805386 3.161223 30.882015 5.522409
2003-03-27 08:36:54 51°18.662 2°45.386 6.806471 3.161539 30.887715 5.690956
2003-03-27 08:36:59 51°18.665 2°45.39 6.808294 3.161223 30.883538 5.589828
2003-03-27 08:37:04 51°18.669 2°45.393 6.808294 3.161223 30.883538 5.589828
2003-03-27 08:37:09 51°18.672 2°45.396 6.810068 3.160802 30.879747 5.657247
2003-03-27 08:37:14 51°18.676 2°45.4 6.84958 3.161434 30.885815 5.724665
2003-03-27 08:37:18 51°18.678 2°45.403 6.810906 3.161329 30.885438 5.657247
2003-03-27 08:37:24 51°18.682 2°45.408 6.807308 3.161329 30.8862 5.657247
2003-03-27 08:37:29 51°18.686 2°45.411 6.809723 3.161013 30.882023 5.589828
2003-03-27 08:37:34 51°18.689 2°45.415 6.809723 3.161013 30.882023 5.589828
2003-03-27 08:37:38 51°18.692 2°45.418 6.807013 3.161118 30.881638 5.556118
2003-03-27 08:37:44 51°18.697 2°45.422 6.809723 3.161644 30.887329 5.522409
2003-03-27 08:37:49 51°18.7 2°45.426 6.808688 3.160697 30.876324 5.657247
2003-03-27 08:37:54 51°18.704 2°45.43 6.808688 3.160697 30.877085 5.690956
2003-03-27 08:37:58 51°18.707 2°45.434 6.804056 3.15996 30.870641 5.758375
2003-03-27 08:38:04 51°18.711 2°45.439 6.804056 3.15996 30.870641 5.758375
2003-03-27 08:38:09 51°18.715 2°45.442 6.801542 3.160697 30.877085 5.960631
2003-03-27 08:38:14 51°18.719 2°45.446 6.79888 3.160486 30.874809 6.196597
2003-03-27 08:38:18 51°18.722 2°45.449 6.801 3.160592 30.875947 6.129178
2003-03-27 08:38:24 51°18.726 2°45.454 6.802873 3.160802 30.878224 6.230306
2003-03-27 08:38:29 51°18.73 2°45.458 6.800014 3.161329 30.884676 6.769657
2003-03-27 08:38:34 51°18.733 2°45.462 6.800014 3.161329 30.884676 6.769657
2003-03-27 08:38:38 51°18.736 2°45.465 6.800063 3.161539 30.887715 6.803366
2003-03-27 08:38:45 51°18.74 2°45.471 6.803612 3.162382 30.900632 6.769657
2003-03-27 08:38:49 51°18.743 2°45.475 6.802084 3.162066 30.897978 6.837076
2003-03-27 08:38:54 51°18.746 2°45.48 6.802873 3.162276 30.901017 6.769657
2003-03-27 08:38:58 51°18.749 2°45.483 6.803168 3.16196 30.89684 6.904494
2003-03-27 08:39:05 51°18.754 2°45.49 6.803168 3.16196 30.89684 6.904494
2003-03-27 08:39:09 51°18.756 2°45.494 6.805436 3.162487 30.90177 6.803366
2003-03-27 08:39:14 51°18.759 2°45.499 6.805682 3.162487 30.90177 6.60111
2003-03-27 08:39:18 51°18.762 2°45.503 6.811596 3.162592 30.902909 6.668529
2003-03-27 08:39:25 51°18.767 2°45.509 6.810019 3.162697 30.903285 6.769657
2003-03-27 08:39:29 51°18.769 2°45.513 6.808196 3.162697 30.901761 6.5674
2003-03-27 08:39:33 51°18.772 2°45.516 6.808196 3.162697 30.901761 6.5674
2003-03-27 08:39:38 51°18.776 2°45.522 6.807358 3.162276 30.897969 6.466272
2003-03-27 08:39:45 51°18.78 2°45.528 6.805682 3.162276 30.897207 6.466272
2003-03-27 08:39:49 51°18.783 2°45.532 6.807801 3.16196 30.89303 6.432563
2003-03-27 08:39:55 51°18.787 2°45.537 6.810955 3.161539 30.888476 6.398853
2003-03-27 08:39:58 51°18.789 2°45.54 6.811054 3.161434 30.885053 6.432563
2003-03-27 08:40:05 51°18.793 2°45.548 6.811054 3.161434 30.885053 6.432563
2003-03-27 08:40:09 51°18.796 2°45.552 6.811547 3.16175 30.887706 6.297725
2003-03-27 08:40:14 51°18.799 2°45.557 6.812877 3.161644 30.888853 5.859503
2003-03-27 08:40:18 51°18.801 2°45.561 6.81746 3.161118 30.883161 6.061759
2003-03-27 08:40:25 51°18.805 2°45.568 6.817904 3.161013 30.878216 5.825794
2003-03-27 08:40:29 51°18.808 2°45.572 6.817509 3.160697 30.876324 5.724665
2003-03-27 08:40:34 51°18.81 2°45.578 6.817509 3.160697 30.876324 5.724665
2003-03-27 08:40:38 51°18.812 2°45.582 6.81608 3.160381 30.872148 5.792084
2003-03-27 08:40:45 51°18.816 2°45.588 6.81613 3.159855 30.866458 5.4887
2003-03-27 08:40:49 51°18.819 2°45.592 6.815982 3.159433 30.860383 5.286443
2003-03-27 08:40:54 51°18.822 2°45.597 6.814799 3.158591 30.848997 5.421281
2003-03-27 08:40:59 51°18.825 2°45.602 6.81677 3.159012 30.852788 5.522409
2003-03-27 08:41:05 51°18.828 2°45.609 6.81677 3.159012 30.852788 5.522409
2003-03-27 08:41:09 51°18.83 2°45.613 6.817411 3.15838 30.8452 5.421281
2003-03-27 08:41:14 51°18.833 2°45.618 6.819825 3.159117 30.852405 5.4887
2003-03-27 08:41:19 51°18.835 2°45.624 6.820811 3.157959 30.84141 5.623537
2003-03-27 08:41:25 51°18.838 2°45.63 6.821254 3.158907 30.85165 5.522409
2003-03-27 08:41:29 51°18.84 2°45.633 6.821057 3.158696 30.850896 5.522409
2003-03-27 08:41:35 51°18.843 2°45.639 6.821057 3.158696 30.850896 5.522409
2003-03-27 08:41:39 51°18.846 2°45.643 6.820121 3.157854 30.840272 5.219024
2003-03-27 08:41:45 51°18.849 2°45.648 6.819333 3.157328 30.833822 5.252734
2003-03-27 08:41:49 51°18.85 2°45.652 6.861941 3.157538 30.834578 4.983059
2003-03-27 08:41:55 51°18.853 2°45.659 6.820564 3.157222 30.830404 4.949349
2003-03-27 08:41:59 51°18.855 2°45.663 6.816672 3.157433 30.83116 4.983059
2003-03-27 08:42:05 51°18.858 2°45.671 6.816672 3.157433 30.83116 4.983059
2003-03-27 08:42:09 51°18.859 2°45.675 6.815095 3.157328 30.830782 4.814512
2003-03-27 08:42:15 51°18.862 2°45.682 6.814947 3.157328 30.832302 4.848221
2003-03-27 08:42:19 51°18.864 2°45.687 6.814257 3.157433 30.83116 4.780802
2003-03-27 08:42:25 51°18.867 2°45.694 6.812877 3.15838 30.842159 4.848221
2003-03-27 08:42:29 51°18.868 2°45.698 6.8113 3.158486 30.844057 4.949349
2003-03-27 08:42:33 51°18.87 2°45.703 6.8113 3.158486 30.844057 4.949349
2003-03-27 08:42:38 51°18.873 2°45.708 6.812335 3.159223 30.854303 5.016768
2003-03-27 08:42:45 51°18.876 2°45.716 6.810315 3.159644 30.858855 5.117896
2003-03-27 08:42:49 51°18.878 2°45.72 6.809181 3.160486 30.868719 5.252734
2003-03-27 08:42:55 51°18.881 2°45.727 6.80583 3.160802 30.873655 5.016768
2003-03-27 08:42:59 51°18.882 2°45.732 6.80445 3.160697 30.873279 5.016768
2003-03-27 08:43:05 51°18.885 2°45.739 6.80445 3.160697 30.873279 5.016768
2003-03-27 08:43:09 51°18.887 2°45.744 6.802922 3.161223 30.876685 5.252734
2003-03-27 08:43:14 51°18.89 2°45.749 6.802971 3.160907 30.876316 5.353862
2003-03-27 08:43:19 51°18.892 2°45.755 6.806569 3.161539 30.884668 5.117896
2003-03-27 08:43:25 51°18.895 2°45.761 6.807161 3.161434 30.884291 5.185315
2003-03-27 08:43:29 51°18.898 2°45.766 6.811497 3.161855 30.890368 5.320153
2003-03-27 08:43:35 51°18.9 2°45.773 6.811497 3.161855 30.890368 5.320153
2003-03-27 08:43:39 51°18.903 2°45.777 6.80997 3.162276 30.897207 5.252734
2003-03-27 08:43:45 51°18.906 2°45.784 6.809723 3.162066 30.895692 5.219024
2003-03-27 08:43:49 51°18.908 2°45.789 6.810216 3.162066 30.89493 5.084187
2003-03-27 08:43:55 51°18.912 2°45.796 6.854357 3.161645 30.889615 4.983059
2003-03-27 08:43:59 51°18.914 2°45.801 6.811251 3.161329 30.884676 4.949349
2003-03-27 08:44:05 51°18.917 2°45.809 6.811251 3.161329 30.884676 4.949349
2003-03-27 08:44:09 51°18.919 2°45.813 6.811596 3.161329 30.884676 5.084187
2003-03-27 08:44:15 51°18.922 2°45.82 6.816228 3.161118 30.881638 5.084187
2003-03-27 08:44:19 51°18.924 2°45.824 6.818298 3.160907 30.877839 5.084187
2003-03-27 08:44:25 51°18.928 2°45.831 6.819431 3.161013 30.878977 5.117896
2003-03-27 08:44:29 51°18.931 2°45.834 6.819579 3.160486 30.871003 5.252734
2003-03-27 08:44:35 51°18.935 2°45.84 6.819579 3.160486 30.871003 5.252734
2003-03-27 08:44:39 51°18.937 2°45.845 6.820761 3.160592 30.874424 5.151606
2003-03-27 08:44:45 51°18.941 2°45.851 6.822387 3.160486 30.871764 5.050477
2003-03-27 08:44:49 51°18.944 2°45.855 6.821944 3.160592 30.870618 5.016768
2003-03-27 08:44:55 51°18.947 2°45.861 6.823274 3.159644 30.858094 4.949349
2003-03-27 08:44:59 51°18.95 2°45.865 6.823619 3.159854 30.859609 4.747093
2003-03-27 08:45:05 51°18.954 2°45.871 6.823619 3.159854 30.859609 4.747093
2003-03-27 08:45:09 51°18.956 2°45.876 6.824802 3.159854 30.858848 4.848221
2003-03-27 08:45:15 51°18.96 2°45.882 6.825245 3.159749 30.85695 4.780802
2003-03-27 08:45:19 51°18.962 2°45.886 6.82628 3.159433 30.852776 4.780802
2003-03-27 08:45:25 51°18.966 2°45.892 6.825294 3.159328 30.850117 4.578546
2003-03-27 08:45:29 51°18.969 2°45.895 6.86524 3.159012 30.847464 4.679674
2003-03-27 08:45:35 51°18.972 2°45.901 6.86524 3.159012 30.847464 4.679674
2003-03-27 08:45:39 51°18.975 2°45.905 6.825196 3.159012 30.845944 4.848221
2003-03-27 08:45:45 51°18.98 2°45.91 6.824605 3.159012 30.845183 4.747093
2003-03-27 08:45:49 51°18.982 2°45.914 6.822585 3.158591 30.840633 4.645965
2003-03-27 08:45:55 51°18.987 2°45.918 6.821156 3.158486 30.840256 4.645965
2003-03-27 08:45:59 51°18.989 2°45.922 6.821451 3.158801 30.842148 4.713383
2003-03-27 08:46:05 51°18.993 2°45.927 6.821451 3.158801 30.842148 4.713383
2003-03-27 08:46:09 51°18.996 2°45.93 6.821944 3.158907 30.844046 4.747093
2003-03-27 08:46:15 51°19 2°45.935 6.82224 3.158907 30.842525 4.713383
2003-03-27 08:46:20 51°19.003 2°45.939 6.823471 3.158907 30.843286 4.747093
2003-03-27 08:46:25 51°19.006 2°45.942 6.824112 3.159539 30.851632 4.679674
2003-03-27 08:46:29 51°19.009 2°45.945 6.825097 3.159117 30.848602 4.612255
2003-03-27 08:46:35 51°19.013 2°45.95 6.825097 3.159117 30.848602 4.612255
2003-03-27 08:46:39 51°19.015 2°45.953 6.823964 3.158591 30.841393 4.612255
2003-03-27 08:46:45 51°19.019 2°45.957 6.826033 3.159328 30.849357 4.612255
2003-03-27 08:46:49 51°19.022 2°45.96 6.824752 3.159012 30.846704 4.578546
2003-03-27 08:46:55 51°19.026 2°45.964 6.823915 3.159117 30.846321 4.511127
2003-03-27 08:46:59 51°19.029 2°45.966 6.826132 3.158907 30.844046 4.477418
2003-03-27 08:47:05 51°19.034 2°45.971 6.826132 3.158907 30.844046 4.477418
2003-03-27 08:47:09 51°19.036 2°45.974 6.826773 3.158486 30.839495 4.612255
2003-03-27 08:47:15 51°19.04 2°45.979 6.825442 3.15838 30.836838 4.578546
2003-03-27 08:47:19 51°19.042 2°45.982 6.825097 3.158064 30.831146 4.713383
2003-03-27 08:47:25 51°19.045 2°45.987 6.824112 3.158064 30.834185 4.645965
2003-03-27 08:47:29 51°19.047 2°45.99 6.823964 3.158064 30.834185 4.612255
2003-03-27 08:47:35 51°19.051 2°45.995 6.823964 3.158064 30.834185 4.612255
2003-03-27 08:47:39 51°19.053 2°45.998 6.861448 3.158486 30.836455 4.713383
2003-03-27 08:47:45 51°19.056 2°46.004 6.819135 3.158275 30.8357 4.747093
2003-03-27 08:47:49 51°19.057 2°46.008 6.820072 3.158275 30.83342 4.780802
2003-03-27 08:47:55 51°19.06 2°46.013 6.816031 3.158696 30.84101 4.848221
2003-03-27 08:47:59 51°19.061 2°46.017 6.816376 3.159012 30.843663 5.084187
2003-03-27 08:48:05 51°19.064 2°46.023 6.816376 3.159012 30.843663 5.084187
2003-03-27 08:48:09 51°19.067 2°46.026 6.814159 3.159749 30.853907 5.252734
2003-03-27 08:48:15 51°19.072 2°46.028 6.81061 3.15996 30.857704 5.252734
2003-03-27 08:48:19 51°19.075 2°46.032 6.80928 3.159644 30.85353 5.421281
2003-03-27 08:48:25 51°19.079 2°46.037 6.81199 3.159433 30.853536 5.556118
2003-03-27 08:48:29 51°19.082 2°46.04 6.810216 3.16017 30.861501 5.724665
2003-03-27 08:48:35 51°19.086 2°46.045 6.810216 3.16017 30.861501 5.724665
2003-03-27 08:48:39 51°19.089 2°46.048 6.815785 3.16017 30.862262 5.825794
2003-03-27 08:48:45 51°19.093 2°46.052 6.812976 3.160907 30.87251 6.264016
2003-03-27 08:48:49 51°19.098 2°46.053 6.813666 3.161644 30.883521 6.095469
2003-03-27 08:48:55 51°19.102 2°46.056 6.813321 3.161434 30.881245 6.129178
2003-03-27 08:48:59 51°19.106 2°46.058 6.814159 3.161013 30.877454 6.061759
2003-03-27 08:49:03 51°19.109 2°46.06 6.814159 3.161013 30.877454 6.061759
2003-03-27 08:49:09 51°19.113 2°46.064 6.815686 3.160907 30.877077 6.162888
2003-03-27 08:49:15 51°19.117 2°46.069 6.813469 3.159223 30.857346 5.825794
2003-03-27 08:49:19 51°19.12 2°46.072 6.816524 3.16017 30.865305 5.926922
2003-03-27 08:49:25 51°19.125 2°46.075 6.816819 3.160486 30.871003 6.466272
2003-03-27 08:49:30 51°19.128 2°46.078 6.818199 3.160486 30.86948 6.230306
2003-03-27 08:49:35 51°19.133 2°46.08 6.818199 3.160486 30.86948 6.230306
2003-03-27 08:49:40 51°19.136 2°46.084 6.820417 3.159854 30.861131 5.960631
2003-03-27 08:49:45 51°19.14 2°46.088 6.821698 3.15996 30.862268 6.02805
2003-03-27 08:49:50 51°19.143 2°46.091 6.82017 3.15838 30.8452 5.792084
2003-03-27 08:49:55 51°19.147 2°46.094 6.821648 3.15817 30.842925 5.792084
2003-03-27 08:49:59 51°19.15 2°46.096 6.821106 3.158907 30.849369 5.724665